<?xml version="1.0" encoding="UTF-8"?>
<gpx version="1.1" creator="https://www.youtrack.es" xsi:schemaLocation="http://www.topografix.com/GPX/1/1 http://www.topografix.com/GPX/1/1/gpx.xsd http://www.garmin.com/xmlschemas/GpxExtensions/v3 http://www.garmin.com/xmlschemas/GpxExtensionsv3.xsd http://www.garmin.com/xmlschemas/TrackPointExtension/v1 http://www.garmin.com/xmlschemas/TrackPointExtensionv1.xsd" xmlns:gpxtpx="http://www.garmin.com/xmlschemas/TrackPointExtension/v1" xmlns:gpxx="http://www.garmin.com/xmlschemas/GpxExtensions/v3" xmlns:xsi="http://www.w3.org/2001/XMLSchema-instance">
  <metadata>
    <link href="https://www.youtrack.es">
      <text>YouTrack.es</text>
    </link>
    <time>2026-05-08T01:12:23Z</time>
  </metadata>
  <trk>
    <src>https://www.youtrack.es</src>
    <link href="https://www.youtrack.es/ruta/2215-ojo-de-aitzulo--cuevas-de-sandaili-san-elias-y-arrikrutz--santuario-de-arantzazu-y-pozas-de-usako">
      <text>YouTrack.es</text>
    </link>
    <trkseg>
      <trkpt lat="42.991904" lon="-2.446130">
        <ele>390.823</ele>
        <time>2018-09-18T13:35:05Z</time>
      </trkpt>
      <trkpt lat="42.992093" lon="-2.445325">
        <ele>395.683</ele>
        <time>2018-09-18T13:35:45Z</time>
      </trkpt>
      <trkpt lat="42.992053" lon="-2.444520">
        <ele>389.711</ele>
        <time>2018-09-18T13:36:25Z</time>
      </trkpt>
      <trkpt lat="42.992485" lon="-2.443737">
        <ele>393.708</ele>
        <time>2018-09-18T13:37:05Z</time>
      </trkpt>
      <trkpt lat="42.992940" lon="-2.442879">
        <ele>390.454</ele>
        <time>2018-09-18T13:37:45Z</time>
      </trkpt>
      <trkpt lat="42.994086" lon="-2.442417">
        <ele>391.360</ele>
        <time>2018-09-18T13:38:25Z</time>
      </trkpt>
      <trkpt lat="42.994714" lon="-2.441484">
        <ele>389.419</ele>
        <time>2018-09-18T13:39:05Z</time>
      </trkpt>
      <trkpt lat="42.995545" lon="-2.440808">
        <ele>384.397</ele>
        <time>2018-09-18T13:39:45Z</time>
      </trkpt>
      <trkpt lat="42.995702" lon="-2.440679">
        <ele>391.897</ele>
        <time>2018-09-18T13:40:25Z</time>
      </trkpt>
      <trkpt lat="42.995906" lon="-2.440400">
        <ele>392.260</ele>
        <time>2018-09-18T13:41:05Z</time>
      </trkpt>
      <trkpt lat="42.996111" lon="-2.440282">
        <ele>398.356</ele>
        <time>2018-09-18T13:41:45Z</time>
      </trkpt>
      <trkpt lat="42.996296" lon="-2.440138">
        <ele>401.161</ele>
        <time>2018-09-18T13:42:25Z</time>
      </trkpt>
      <trkpt lat="42.996453" lon="-2.440025">
        <ele>399.413</ele>
        <time>2018-09-18T13:43:05Z</time>
      </trkpt>
      <trkpt lat="42.996712" lon="-2.439923">
        <ele>403.043</ele>
        <time>2018-09-18T13:43:45Z</time>
      </trkpt>
      <trkpt lat="42.996986" lon="-2.439832">
        <ele>413.107</ele>
        <time>2018-09-18T13:44:25Z</time>
      </trkpt>
      <trkpt lat="42.997175" lon="-2.439698">
        <ele>413.408</ele>
        <time>2018-09-18T13:45:05Z</time>
      </trkpt>
      <trkpt lat="42.997308" lon="-2.439623">
        <ele>412.973</ele>
        <time>2018-09-18T13:45:45Z</time>
      </trkpt>
      <trkpt lat="42.997457" lon="-2.439671">
        <ele>424.849</ele>
        <time>2018-09-18T13:46:25Z</time>
      </trkpt>
      <trkpt lat="42.997418" lon="-2.439628">
        <ele>418.018</ele>
        <time>2018-09-18T13:47:05Z</time>
      </trkpt>
      <trkpt lat="42.997289" lon="-2.439644">
        <ele>414.316</ele>
        <time>2018-09-18T13:47:45Z</time>
      </trkpt>
      <trkpt lat="42.997061" lon="-2.439778">
        <ele>413.476</ele>
        <time>2018-09-18T13:48:25Z</time>
      </trkpt>
      <trkpt lat="42.996880" lon="-2.439875">
        <ele>409.959</ele>
        <time>2018-09-18T13:49:05Z</time>
      </trkpt>
      <trkpt lat="42.996649" lon="-2.439955">
        <ele>401.535</ele>
        <time>2018-09-18T13:49:45Z</time>
      </trkpt>
      <trkpt lat="42.996386" lon="-2.440068">
        <ele>400.550</ele>
        <time>2018-09-18T13:50:25Z</time>
      </trkpt>
      <trkpt lat="42.996053" lon="-2.440331">
        <ele>398.355</ele>
        <time>2018-09-18T13:51:05Z</time>
      </trkpt>
      <trkpt lat="42.995864" lon="-2.440465">
        <ele>392.707</ele>
        <time>2018-09-18T13:51:45Z</time>
      </trkpt>
      <trkpt lat="42.995637" lon="-2.440696">
        <ele>386.717</ele>
        <time>2018-09-18T13:52:25Z</time>
      </trkpt>
      <trkpt lat="42.996155" lon="-2.439961">
        <ele>383.408</ele>
        <time>2018-09-18T13:53:05Z</time>
      </trkpt>
      <trkpt lat="42.996951" lon="-2.439505">
        <ele>384.557</ele>
        <time>2018-09-18T13:53:45Z</time>
      </trkpt>
      <trkpt lat="42.997657" lon="-2.439242">
        <ele>384.123</ele>
        <time>2018-09-18T13:54:25Z</time>
      </trkpt>
      <trkpt lat="42.998463" lon="-2.439009">
        <ele>397.822</ele>
        <time>2018-09-18T13:55:05Z</time>
      </trkpt>
      <trkpt lat="42.998691" lon="-2.438494">
        <ele>368.180</ele>
        <time>2018-09-18T13:55:45Z</time>
      </trkpt>
      <trkpt lat="42.999099" lon="-2.438086">
        <ele>364.790</ele>
        <time>2018-09-18T13:56:25Z</time>
      </trkpt>
      <trkpt lat="42.999829" lon="-2.437485">
        <ele>352.223</ele>
        <time>2018-09-18T13:57:05Z</time>
      </trkpt>
      <trkpt lat="43.000841" lon="-2.436820">
        <ele>345.299</ele>
        <time>2018-09-18T13:57:45Z</time>
      </trkpt>
      <trkpt lat="43.000990" lon="-2.436681">
        <ele>339.394</ele>
        <time>2018-09-18T13:58:25Z</time>
      </trkpt>
      <trkpt lat="43.001021" lon="-2.436069">
        <ele>335.417</ele>
        <time>2018-09-18T13:59:05Z</time>
      </trkpt>
      <trkpt lat="43.000417" lon="-2.434556">
        <ele>355.287</ele>
        <time>2018-09-18T13:59:45Z</time>
      </trkpt>
      <trkpt lat="43.000605" lon="-2.434192">
        <ele>356.715</ele>
        <time>2018-09-18T14:00:25Z</time>
      </trkpt>
      <trkpt lat="43.000700" lon="-2.433902">
        <ele>363.408</ele>
        <time>2018-09-18T14:01:05Z</time>
      </trkpt>
      <trkpt lat="43.000582" lon="-2.433151">
        <ele>363.723</ele>
        <time>2018-09-18T14:01:45Z</time>
      </trkpt>
      <trkpt lat="43.000229" lon="-2.432057">
        <ele>374.239</ele>
        <time>2018-09-18T14:02:25Z</time>
      </trkpt>
      <trkpt lat="43.000111" lon="-2.431316">
        <ele>379.738</ele>
        <time>2018-09-18T14:03:05Z</time>
      </trkpt>
      <trkpt lat="42.999836" lon="-2.430512">
        <ele>388.316</ele>
        <time>2018-09-18T14:03:45Z</time>
      </trkpt>
      <trkpt lat="42.999217" lon="-2.429782">
        <ele>399.456</ele>
        <time>2018-09-18T14:04:25Z</time>
      </trkpt>
      <trkpt lat="42.998997" lon="-2.429031">
        <ele>406.639</ele>
        <time>2018-09-18T14:05:05Z</time>
      </trkpt>
      <trkpt lat="42.998699" lon="-2.428795">
        <ele>408.555</ele>
        <time>2018-09-18T14:05:45Z</time>
      </trkpt>
      <trkpt lat="42.998204" lon="-2.428441">
        <ele>413.120</ele>
        <time>2018-09-18T14:06:25Z</time>
      </trkpt>
      <trkpt lat="42.997647" lon="-2.427937">
        <ele>424.359</ele>
        <time>2018-09-18T14:07:05Z</time>
      </trkpt>
      <trkpt lat="42.997153" lon="-2.427722">
        <ele>433.703</ele>
        <time>2018-09-18T14:07:45Z</time>
      </trkpt>
      <trkpt lat="42.997043" lon="-2.427862">
        <ele>436.423</ele>
        <time>2018-09-18T14:08:25Z</time>
      </trkpt>
      <trkpt lat="42.992849" lon="-2.448953">
        <ele>394.265</ele>
        <time>2018-09-08T11:07:45Z</time>
      </trkpt>
      <trkpt lat="42.992874" lon="-2.448901">
        <ele>394.468</ele>
        <time>2018-09-08T11:08:47Z</time>
      </trkpt>
      <trkpt lat="42.992856" lon="-2.448961">
        <ele>394.414</ele>
        <time>2018-09-08T11:10:40Z</time>
      </trkpt>
      <trkpt lat="42.992823" lon="-2.449007">
        <ele>394.208</ele>
        <time>2018-09-08T11:10:45Z</time>
      </trkpt>
      <trkpt lat="42.992788" lon="-2.448960">
        <ele>393.618</ele>
        <time>2018-09-08T11:10:51Z</time>
      </trkpt>
      <trkpt lat="42.992825" lon="-2.448884">
        <ele>393.754</ele>
        <time>2018-09-08T11:10:59Z</time>
      </trkpt>
      <trkpt lat="42.992818" lon="-2.448815">
        <ele>393.530</ele>
        <time>2018-09-08T11:11:05Z</time>
      </trkpt>
      <trkpt lat="42.992808" lon="-2.448743">
        <ele>393.327</ele>
        <time>2018-09-08T11:11:10Z</time>
      </trkpt>
      <trkpt lat="42.992796" lon="-2.448677">
        <ele>393.292</ele>
        <time>2018-09-08T11:11:15Z</time>
      </trkpt>
      <trkpt lat="42.992792" lon="-2.448609">
        <ele>393.158</ele>
        <time>2018-09-08T11:11:20Z</time>
      </trkpt>
      <trkpt lat="42.992802" lon="-2.448546">
        <ele>394.018</ele>
        <time>2018-09-08T11:11:25Z</time>
      </trkpt>
      <trkpt lat="42.992808" lon="-2.448482">
        <ele>394.820</ele>
        <time>2018-09-08T11:11:30Z</time>
      </trkpt>
      <trkpt lat="42.992807" lon="-2.448420">
        <ele>395.678</ele>
        <time>2018-09-08T11:11:35Z</time>
      </trkpt>
      <trkpt lat="42.992816" lon="-2.448359">
        <ele>396.333</ele>
        <time>2018-09-08T11:11:41Z</time>
      </trkpt>
      <trkpt lat="42.992819" lon="-2.448290">
        <ele>397.126</ele>
        <time>2018-09-08T11:11:48Z</time>
      </trkpt>
      <trkpt lat="42.992825" lon="-2.448221">
        <ele>397.908</ele>
        <time>2018-09-08T11:11:55Z</time>
      </trkpt>
      <trkpt lat="42.992835" lon="-2.448158">
        <ele>398.879</ele>
        <time>2018-09-08T11:12:01Z</time>
      </trkpt>
      <trkpt lat="42.992847" lon="-2.448089">
        <ele>400.095</ele>
        <time>2018-09-08T11:12:07Z</time>
      </trkpt>
      <trkpt lat="42.992869" lon="-2.448027">
        <ele>401.321</ele>
        <time>2018-09-08T11:12:13Z</time>
      </trkpt>
      <trkpt lat="42.992892" lon="-2.447970">
        <ele>402.748</ele>
        <time>2018-09-08T11:12:19Z</time>
      </trkpt>
      <trkpt lat="42.992918" lon="-2.447915">
        <ele>404.363</ele>
        <time>2018-09-08T11:12:25Z</time>
      </trkpt>
      <trkpt lat="42.992962" lon="-2.447941">
        <ele>405.359</ele>
        <time>2018-09-08T11:12:35Z</time>
      </trkpt>
      <trkpt lat="42.992999" lon="-2.447981">
        <ele>405.569</ele>
        <time>2018-09-08T11:12:40Z</time>
      </trkpt>
      <trkpt lat="42.993042" lon="-2.448006">
        <ele>406.151</ele>
        <time>2018-09-08T11:12:46Z</time>
      </trkpt>
      <trkpt lat="42.993088" lon="-2.448006">
        <ele>407.137</ele>
        <time>2018-09-08T11:12:52Z</time>
      </trkpt>
      <trkpt lat="42.993119" lon="-2.447960">
        <ele>409.149</ele>
        <time>2018-09-08T11:12:57Z</time>
      </trkpt>
      <trkpt lat="42.993136" lon="-2.447900">
        <ele>411.413</ele>
        <time>2018-09-08T11:13:02Z</time>
      </trkpt>
      <trkpt lat="42.993132" lon="-2.447838">
        <ele>413.308</ele>
        <time>2018-09-08T11:13:08Z</time>
      </trkpt>
      <trkpt lat="42.993105" lon="-2.447782">
        <ele>414.315</ele>
        <time>2018-09-08T11:13:28Z</time>
      </trkpt>
      <trkpt lat="42.993102" lon="-2.447713">
        <ele>415.331</ele>
        <time>2018-09-08T11:13:34Z</time>
      </trkpt>
      <trkpt lat="42.993103" lon="-2.447644">
        <ele>416.477</ele>
        <time>2018-09-08T11:13:40Z</time>
      </trkpt>
      <trkpt lat="42.993104" lon="-2.447572">
        <ele>417.544</ele>
        <time>2018-09-08T11:13:46Z</time>
      </trkpt>
      <trkpt lat="42.993112" lon="-2.447505">
        <ele>418.819</ele>
        <time>2018-09-08T11:13:52Z</time>
      </trkpt>
      <trkpt lat="42.993118" lon="-2.447444">
        <ele>419.635</ele>
        <time>2018-09-08T11:13:57Z</time>
      </trkpt>
      <trkpt lat="42.993130" lon="-2.447381">
        <ele>420.615</ele>
        <time>2018-09-08T11:14:03Z</time>
      </trkpt>
      <trkpt lat="42.993147" lon="-2.447313">
        <ele>421.857</ele>
        <time>2018-09-08T11:14:14Z</time>
      </trkpt>
      <trkpt lat="42.993152" lon="-2.447247">
        <ele>422.576</ele>
        <time>2018-09-08T11:14:20Z</time>
      </trkpt>
      <trkpt lat="42.993171" lon="-2.447185">
        <ele>423.590</ele>
        <time>2018-09-08T11:14:31Z</time>
      </trkpt>
      <trkpt lat="42.993167" lon="-2.447114">
        <ele>423.619</ele>
        <time>2018-09-08T11:14:39Z</time>
      </trkpt>
      <trkpt lat="42.993186" lon="-2.447055">
        <ele>424.408</ele>
        <time>2018-09-08T11:14:44Z</time>
      </trkpt>
      <trkpt lat="42.993202" lon="-2.446992">
        <ele>425.019</ele>
        <time>2018-09-08T11:14:50Z</time>
      </trkpt>
      <trkpt lat="42.993222" lon="-2.446918">
        <ele>425.895</ele>
        <time>2018-09-08T11:14:54Z</time>
      </trkpt>
      <trkpt lat="42.993240" lon="-2.446852">
        <ele>426.491</ele>
        <time>2018-09-08T11:14:58Z</time>
      </trkpt>
      <trkpt lat="42.993257" lon="-2.446793">
        <ele>427.088</ele>
        <time>2018-09-08T11:15:02Z</time>
      </trkpt>
      <trkpt lat="42.993276" lon="-2.446735">
        <ele>427.543</ele>
        <time>2018-09-08T11:15:06Z</time>
      </trkpt>
      <trkpt lat="42.993294" lon="-2.446677">
        <ele>428.049</ele>
        <time>2018-09-08T11:15:10Z</time>
      </trkpt>
      <trkpt lat="42.993303" lon="-2.446616">
        <ele>428.889</ele>
        <time>2018-09-08T11:15:14Z</time>
      </trkpt>
      <trkpt lat="42.993308" lon="-2.446540">
        <ele>429.741</ele>
        <time>2018-09-08T11:15:19Z</time>
      </trkpt>
      <trkpt lat="42.993308" lon="-2.446478">
        <ele>430.481</ele>
        <time>2018-09-08T11:15:23Z</time>
      </trkpt>
      <trkpt lat="42.993301" lon="-2.446406">
        <ele>431.061</ele>
        <time>2018-09-08T11:15:28Z</time>
      </trkpt>
      <trkpt lat="42.993286" lon="-2.446342">
        <ele>431.317</ele>
        <time>2018-09-08T11:15:32Z</time>
      </trkpt>
      <trkpt lat="42.993309" lon="-2.446287">
        <ele>432.508</ele>
        <time>2018-09-08T11:15:37Z</time>
      </trkpt>
      <trkpt lat="42.993346" lon="-2.446236">
        <ele>433.910</ele>
        <time>2018-09-08T11:15:43Z</time>
      </trkpt>
      <trkpt lat="42.993382" lon="-2.446192">
        <ele>435.176</ele>
        <time>2018-09-08T11:15:49Z</time>
      </trkpt>
      <trkpt lat="42.993405" lon="-2.446136">
        <ele>436.052</ele>
        <time>2018-09-08T11:15:55Z</time>
      </trkpt>
      <trkpt lat="42.993428" lon="-2.446076">
        <ele>437.179</ele>
        <time>2018-09-08T11:16:01Z</time>
      </trkpt>
      <trkpt lat="42.993457" lon="-2.446018">
        <ele>438.274</ele>
        <time>2018-09-08T11:16:06Z</time>
      </trkpt>
      <trkpt lat="42.993494" lon="-2.445978">
        <ele>439.390</ele>
        <time>2018-09-08T11:16:13Z</time>
      </trkpt>
      <trkpt lat="42.993522" lon="-2.445922">
        <ele>440.450</ele>
        <time>2018-09-08T11:16:19Z</time>
      </trkpt>
      <trkpt lat="42.993565" lon="-2.445903">
        <ele>441.492</ele>
        <time>2018-09-08T11:16:28Z</time>
      </trkpt>
      <trkpt lat="42.993611" lon="-2.445870">
        <ele>442.635</ele>
        <time>2018-09-08T11:16:33Z</time>
      </trkpt>
      <trkpt lat="42.993653" lon="-2.445837">
        <ele>443.786</ele>
        <time>2018-09-08T11:16:40Z</time>
      </trkpt>
      <trkpt lat="42.993645" lon="-2.445773">
        <ele>444.114</ele>
        <time>2018-09-08T11:16:47Z</time>
      </trkpt>
      <trkpt lat="42.993635" lon="-2.445707">
        <ele>444.408</ele>
        <time>2018-09-08T11:16:55Z</time>
      </trkpt>
      <trkpt lat="42.993677" lon="-2.445670">
        <ele>445.535</ele>
        <time>2018-09-08T11:17:02Z</time>
      </trkpt>
      <trkpt lat="42.993721" lon="-2.445648">
        <ele>446.621</ele>
        <time>2018-09-08T11:17:07Z</time>
      </trkpt>
      <trkpt lat="42.993767" lon="-2.445641">
        <ele>447.627</ele>
        <time>2018-09-08T11:17:12Z</time>
      </trkpt>
      <trkpt lat="42.993816" lon="-2.445622">
        <ele>448.864</ele>
        <time>2018-09-08T11:17:20Z</time>
      </trkpt>
      <trkpt lat="42.993857" lon="-2.445588">
        <ele>450.019</ele>
        <time>2018-09-08T11:17:26Z</time>
      </trkpt>
      <trkpt lat="42.993898" lon="-2.445558">
        <ele>451.135</ele>
        <time>2018-09-08T11:17:32Z</time>
      </trkpt>
      <trkpt lat="42.993932" lon="-2.445516">
        <ele>452.175</ele>
        <time>2018-09-08T11:17:39Z</time>
      </trkpt>
      <trkpt lat="42.993977" lon="-2.445486">
        <ele>453.127</ele>
        <time>2018-09-08T11:17:46Z</time>
      </trkpt>
      <trkpt lat="42.994019" lon="-2.445444">
        <ele>454.187</ele>
        <time>2018-09-08T11:17:52Z</time>
      </trkpt>
      <trkpt lat="42.994066" lon="-2.445413">
        <ele>455.242</ele>
        <time>2018-09-08T11:17:58Z</time>
      </trkpt>
      <trkpt lat="42.994085" lon="-2.445352">
        <ele>456.026</ele>
        <time>2018-09-08T11:18:09Z</time>
      </trkpt>
      <trkpt lat="42.994113" lon="-2.445296">
        <ele>456.908</ele>
        <time>2018-09-08T11:18:16Z</time>
      </trkpt>
      <trkpt lat="42.994135" lon="-2.445233">
        <ele>457.730</ele>
        <time>2018-09-08T11:18:21Z</time>
      </trkpt>
      <trkpt lat="42.994144" lon="-2.445163">
        <ele>458.486</ele>
        <time>2018-09-08T11:18:27Z</time>
      </trkpt>
      <trkpt lat="42.994147" lon="-2.445097">
        <ele>458.912</ele>
        <time>2018-09-08T11:18:32Z</time>
      </trkpt>
      <trkpt lat="42.994127" lon="-2.445040">
        <ele>458.959</ele>
        <time>2018-09-08T11:18:44Z</time>
      </trkpt>
      <trkpt lat="42.994184" lon="-2.445015">
        <ele>460.224</ele>
        <time>2018-09-08T11:19:02Z</time>
      </trkpt>
      <trkpt lat="42.994226" lon="-2.444981">
        <ele>461.230</ele>
        <time>2018-09-08T11:19:12Z</time>
      </trkpt>
      <trkpt lat="42.994264" lon="-2.444939">
        <ele>462.260</ele>
        <time>2018-09-08T11:19:19Z</time>
      </trkpt>
      <trkpt lat="42.994301" lon="-2.444901">
        <ele>463.122</ele>
        <time>2018-09-08T11:19:27Z</time>
      </trkpt>
      <trkpt lat="42.994338" lon="-2.444865">
        <ele>464.115</ele>
        <time>2018-09-08T11:19:35Z</time>
      </trkpt>
      <trkpt lat="42.994379" lon="-2.444826">
        <ele>465.165</ele>
        <time>2018-09-08T11:19:41Z</time>
      </trkpt>
      <trkpt lat="42.994390" lon="-2.444764">
        <ele>465.711</ele>
        <time>2018-09-08T11:19:46Z</time>
      </trkpt>
      <trkpt lat="42.994398" lon="-2.444702">
        <ele>466.108</ele>
        <time>2018-09-08T11:19:50Z</time>
      </trkpt>
      <trkpt lat="42.994399" lon="-2.444637">
        <ele>465.983</ele>
        <time>2018-09-08T11:19:56Z</time>
      </trkpt>
      <trkpt lat="42.994424" lon="-2.444566">
        <ele>466.159</ele>
        <time>2018-09-08T11:20:01Z</time>
      </trkpt>
      <trkpt lat="42.994442" lon="-2.444510">
        <ele>466.255</ele>
        <time>2018-09-08T11:20:05Z</time>
      </trkpt>
      <trkpt lat="42.994468" lon="-2.444444">
        <ele>466.542</ele>
        <time>2018-09-08T11:20:09Z</time>
      </trkpt>
      <trkpt lat="42.994494" lon="-2.444374">
        <ele>466.827</ele>
        <time>2018-09-08T11:20:13Z</time>
      </trkpt>
      <trkpt lat="42.994520" lon="-2.444316">
        <ele>467.083</ele>
        <time>2018-09-08T11:20:17Z</time>
      </trkpt>
      <trkpt lat="42.994554" lon="-2.444256">
        <ele>467.463</ele>
        <time>2018-09-08T11:20:23Z</time>
      </trkpt>
      <trkpt lat="42.994583" lon="-2.444203">
        <ele>467.735</ele>
        <time>2018-09-08T11:20:27Z</time>
      </trkpt>
      <trkpt lat="42.994606" lon="-2.444150">
        <ele>467.942</ele>
        <time>2018-09-08T11:20:31Z</time>
      </trkpt>
      <trkpt lat="42.994634" lon="-2.444091">
        <ele>468.522</ele>
        <time>2018-09-08T11:20:37Z</time>
      </trkpt>
      <trkpt lat="42.994638" lon="-2.444024">
        <ele>468.714</ele>
        <time>2018-09-08T11:20:42Z</time>
      </trkpt>
      <trkpt lat="42.994678" lon="-2.443984">
        <ele>469.708</ele>
        <time>2018-09-08T11:20:49Z</time>
      </trkpt>
      <trkpt lat="42.994734" lon="-2.443965">
        <ele>471.036</ele>
        <time>2018-09-08T11:20:53Z</time>
      </trkpt>
      <trkpt lat="42.994786" lon="-2.443946">
        <ele>472.452</ele>
        <time>2018-09-08T11:20:56Z</time>
      </trkpt>
      <trkpt lat="42.994827" lon="-2.443915">
        <ele>473.688</ele>
        <time>2018-09-08T11:21:01Z</time>
      </trkpt>
      <trkpt lat="42.994824" lon="-2.443850">
        <ele>473.115</ele>
        <time>2018-09-08T11:21:18Z</time>
      </trkpt>
      <trkpt lat="42.994866" lon="-2.443888">
        <ele>474.640</ele>
        <time>2018-09-08T11:21:57Z</time>
      </trkpt>
      <trkpt lat="42.994920" lon="-2.443898">
        <ele>476.096</ele>
        <time>2018-09-08T11:22:19Z</time>
      </trkpt>
      <trkpt lat="42.994965" lon="-2.443888">
        <ele>477.126</ele>
        <time>2018-09-08T11:22:28Z</time>
      </trkpt>
      <trkpt lat="42.995003" lon="-2.443850">
        <ele>477.718</ele>
        <time>2018-09-08T11:22:37Z</time>
      </trkpt>
      <trkpt lat="42.995050" lon="-2.443830">
        <ele>478.666</ele>
        <time>2018-09-08T11:22:44Z</time>
      </trkpt>
      <trkpt lat="42.995100" lon="-2.443813">
        <ele>479.729</ele>
        <time>2018-09-08T11:22:52Z</time>
      </trkpt>
      <trkpt lat="42.995144" lon="-2.443787">
        <ele>480.521</ele>
        <time>2018-09-08T11:23:00Z</time>
      </trkpt>
      <trkpt lat="42.995197" lon="-2.443772">
        <ele>481.708</ele>
        <time>2018-09-08T11:23:07Z</time>
      </trkpt>
      <trkpt lat="42.995234" lon="-2.443723">
        <ele>482.178</ele>
        <time>2018-09-08T11:23:12Z</time>
      </trkpt>
      <trkpt lat="42.995284" lon="-2.443718">
        <ele>483.394</ele>
        <time>2018-09-08T11:23:22Z</time>
      </trkpt>
      <trkpt lat="42.995330" lon="-2.443693">
        <ele>484.160</ele>
        <time>2018-09-08T11:23:29Z</time>
      </trkpt>
      <trkpt lat="42.995374" lon="-2.443660">
        <ele>484.997</ele>
        <time>2018-09-08T11:23:35Z</time>
      </trkpt>
      <trkpt lat="42.995418" lon="-2.443633">
        <ele>485.712</ele>
        <time>2018-09-08T11:23:41Z</time>
      </trkpt>
      <trkpt lat="42.995460" lon="-2.443606">
        <ele>486.548</ele>
        <time>2018-09-08T11:23:46Z</time>
      </trkpt>
      <trkpt lat="42.995497" lon="-2.443556">
        <ele>486.738</ele>
        <time>2018-09-08T11:23:52Z</time>
      </trkpt>
      <trkpt lat="42.995539" lon="-2.443509">
        <ele>487.150</ele>
        <time>2018-09-08T11:23:57Z</time>
      </trkpt>
      <trkpt lat="42.995581" lon="-2.443476">
        <ele>487.619</ele>
        <time>2018-09-08T11:24:01Z</time>
      </trkpt>
      <trkpt lat="42.995633" lon="-2.443457">
        <ele>488.509</ele>
        <time>2018-09-08T11:24:05Z</time>
      </trkpt>
      <trkpt lat="42.995685" lon="-2.443442">
        <ele>489.419</ele>
        <time>2018-09-08T11:24:09Z</time>
      </trkpt>
      <trkpt lat="42.995731" lon="-2.443430">
        <ele>490.208</ele>
        <time>2018-09-08T11:24:16Z</time>
      </trkpt>
      <trkpt lat="42.995779" lon="-2.443421">
        <ele>491.153</ele>
        <time>2018-09-08T11:24:22Z</time>
      </trkpt>
      <trkpt lat="42.995834" lon="-2.443443">
        <ele>492.679</ele>
        <time>2018-09-08T11:24:28Z</time>
      </trkpt>
      <trkpt lat="42.995879" lon="-2.443430">
        <ele>493.525</ele>
        <time>2018-09-08T11:24:31Z</time>
      </trkpt>
      <trkpt lat="42.995926" lon="-2.443405">
        <ele>494.372</ele>
        <time>2018-09-08T11:24:34Z</time>
      </trkpt>
      <trkpt lat="42.995971" lon="-2.443365">
        <ele>494.957</ele>
        <time>2018-09-08T11:24:38Z</time>
      </trkpt>
      <trkpt lat="42.996025" lon="-2.443336">
        <ele>495.913</ele>
        <time>2018-09-08T11:24:43Z</time>
      </trkpt>
      <trkpt lat="42.996070" lon="-2.443312">
        <ele>496.923</ele>
        <time>2018-09-08T11:24:51Z</time>
      </trkpt>
      <trkpt lat="42.996112" lon="-2.443277">
        <ele>497.845</ele>
        <time>2018-09-08T11:24:59Z</time>
      </trkpt>
      <trkpt lat="42.996157" lon="-2.443264">
        <ele>498.722</ele>
        <time>2018-09-08T11:25:05Z</time>
      </trkpt>
      <trkpt lat="42.996204" lon="-2.443248">
        <ele>499.762</ele>
        <time>2018-09-08T11:25:11Z</time>
      </trkpt>
      <trkpt lat="42.996231" lon="-2.443189">
        <ele>500.108</ele>
        <time>2018-09-08T11:25:32Z</time>
      </trkpt>
      <trkpt lat="42.996264" lon="-2.443145">
        <ele>500.608</ele>
        <time>2018-09-08T11:25:37Z</time>
      </trkpt>
      <trkpt lat="42.996309" lon="-2.443132">
        <ele>501.684</ele>
        <time>2018-09-08T11:25:42Z</time>
      </trkpt>
      <trkpt lat="42.996339" lon="-2.443081">
        <ele>502.070</ele>
        <time>2018-09-08T11:25:50Z</time>
      </trkpt>
      <trkpt lat="42.996354" lon="-2.443019">
        <ele>502.486</ele>
        <time>2018-09-08T11:25:58Z</time>
      </trkpt>
      <trkpt lat="42.996384" lon="-2.442962">
        <ele>503.263</ele>
        <time>2018-09-08T11:26:07Z</time>
      </trkpt>
      <trkpt lat="42.996418" lon="-2.442918">
        <ele>504.278</ele>
        <time>2018-09-08T11:26:13Z</time>
      </trkpt>
      <trkpt lat="42.996468" lon="-2.442899">
        <ele>505.644</ele>
        <time>2018-09-08T11:26:19Z</time>
      </trkpt>
      <trkpt lat="42.996507" lon="-2.442860">
        <ele>506.784</ele>
        <time>2018-09-08T11:26:25Z</time>
      </trkpt>
      <trkpt lat="42.996519" lon="-2.442790">
        <ele>507.286</ele>
        <time>2018-09-08T11:26:29Z</time>
      </trkpt>
      <trkpt lat="42.996529" lon="-2.442728">
        <ele>507.759</ele>
        <time>2018-09-08T11:26:32Z</time>
      </trkpt>
      <trkpt lat="42.996546" lon="-2.442668">
        <ele>508.403</ele>
        <time>2018-09-08T11:26:36Z</time>
      </trkpt>
      <trkpt lat="42.996592" lon="-2.442629">
        <ele>509.723</ele>
        <time>2018-09-08T11:26:43Z</time>
      </trkpt>
      <trkpt lat="42.996645" lon="-2.442609">
        <ele>511.108</ele>
        <time>2018-09-08T11:26:49Z</time>
      </trkpt>
      <trkpt lat="42.996692" lon="-2.442588">
        <ele>512.477</ele>
        <time>2018-09-08T11:26:54Z</time>
      </trkpt>
      <trkpt lat="42.996731" lon="-2.442552">
        <ele>513.563</ele>
        <time>2018-09-08T11:27:01Z</time>
      </trkpt>
      <trkpt lat="42.996772" lon="-2.442526">
        <ele>514.639</ele>
        <time>2018-09-08T11:27:06Z</time>
      </trkpt>
      <trkpt lat="42.996823" lon="-2.442501">
        <ele>515.996</ele>
        <time>2018-09-08T11:27:11Z</time>
      </trkpt>
      <trkpt lat="42.996872" lon="-2.442469">
        <ele>516.921</ele>
        <time>2018-09-08T11:27:15Z</time>
      </trkpt>
      <trkpt lat="42.996910" lon="-2.442428">
        <ele>517.547</ele>
        <time>2018-09-08T11:27:20Z</time>
      </trkpt>
      <trkpt lat="42.996949" lon="-2.442396">
        <ele>518.447</ele>
        <time>2018-09-08T11:27:27Z</time>
      </trkpt>
      <trkpt lat="42.996984" lon="-2.442344">
        <ele>519.069</ele>
        <time>2018-09-08T11:27:33Z</time>
      </trkpt>
      <trkpt lat="42.997004" lon="-2.442277">
        <ele>519.154</ele>
        <time>2018-09-08T11:27:39Z</time>
      </trkpt>
      <trkpt lat="42.997039" lon="-2.442235">
        <ele>519.856</ele>
        <time>2018-09-08T11:27:42Z</time>
      </trkpt>
      <trkpt lat="42.997078" lon="-2.442194">
        <ele>520.311</ele>
        <time>2018-09-08T11:27:46Z</time>
      </trkpt>
      <trkpt lat="42.997119" lon="-2.442159">
        <ele>520.808</ele>
        <time>2018-09-08T11:27:51Z</time>
      </trkpt>
      <trkpt lat="42.997172" lon="-2.442139">
        <ele>522.087</ele>
        <time>2018-09-08T11:27:56Z</time>
      </trkpt>
      <trkpt lat="42.997214" lon="-2.442105">
        <ele>522.673</ele>
        <time>2018-09-08T11:28:00Z</time>
      </trkpt>
      <trkpt lat="42.997261" lon="-2.442083">
        <ele>523.739</ele>
        <time>2018-09-08T11:28:06Z</time>
      </trkpt>
      <trkpt lat="42.997298" lon="-2.442044">
        <ele>524.126</ele>
        <time>2018-09-08T11:28:13Z</time>
      </trkpt>
      <trkpt lat="42.997341" lon="-2.442006">
        <ele>524.971</ele>
        <time>2018-09-08T11:28:18Z</time>
      </trkpt>
      <trkpt lat="42.997369" lon="-2.441952">
        <ele>524.947</ele>
        <time>2018-09-08T11:28:27Z</time>
      </trkpt>
      <trkpt lat="42.997412" lon="-2.441931">
        <ele>525.947</ele>
        <time>2018-09-08T11:28:36Z</time>
      </trkpt>
      <trkpt lat="42.997441" lon="-2.441878">
        <ele>525.839</ele>
        <time>2018-09-08T11:28:42Z</time>
      </trkpt>
      <trkpt lat="42.997487" lon="-2.441856">
        <ele>527.021</ele>
        <time>2018-09-08T11:28:49Z</time>
      </trkpt>
      <trkpt lat="42.997538" lon="-2.441880">
        <ele>528.841</ele>
        <time>2018-09-08T11:28:53Z</time>
      </trkpt>
      <trkpt lat="42.997588" lon="-2.441902">
        <ele>530.505</ele>
        <time>2018-09-08T11:28:58Z</time>
      </trkpt>
      <trkpt lat="42.997633" lon="-2.441923">
        <ele>532.008</ele>
        <time>2018-09-08T11:29:03Z</time>
      </trkpt>
      <trkpt lat="42.997687" lon="-2.441916">
        <ele>533.354</ele>
        <time>2018-09-08T11:29:11Z</time>
      </trkpt>
      <trkpt lat="42.997738" lon="-2.441905">
        <ele>534.410</ele>
        <time>2018-09-08T11:29:16Z</time>
      </trkpt>
      <trkpt lat="42.997786" lon="-2.441919">
        <ele>535.816</ele>
        <time>2018-09-08T11:29:21Z</time>
      </trkpt>
      <trkpt lat="42.997839" lon="-2.441930">
        <ele>537.193</ele>
        <time>2018-09-08T11:29:26Z</time>
      </trkpt>
      <trkpt lat="42.997852" lon="-2.441992">
        <ele>537.978</ele>
        <time>2018-09-08T11:29:37Z</time>
      </trkpt>
      <trkpt lat="42.997894" lon="-2.442030">
        <ele>539.134</ele>
        <time>2018-09-08T11:29:42Z</time>
      </trkpt>
      <trkpt lat="42.997934" lon="-2.442068">
        <ele>540.324</ele>
        <time>2018-09-08T11:29:47Z</time>
      </trkpt>
      <trkpt lat="42.997951" lon="-2.442133">
        <ele>541.166</ele>
        <time>2018-09-08T11:29:55Z</time>
      </trkpt>
      <trkpt lat="42.997949" lon="-2.442196">
        <ele>541.524</ele>
        <time>2018-09-08T11:30:00Z</time>
      </trkpt>
      <trkpt lat="42.997950" lon="-2.442268">
        <ele>541.804</ele>
        <time>2018-09-08T11:30:05Z</time>
      </trkpt>
      <trkpt lat="42.997975" lon="-2.442326">
        <ele>542.514</ele>
        <time>2018-09-08T11:30:11Z</time>
      </trkpt>
      <trkpt lat="42.998019" lon="-2.442353">
        <ele>543.608</ele>
        <time>2018-09-08T11:30:15Z</time>
      </trkpt>
      <trkpt lat="42.998066" lon="-2.442395">
        <ele>544.984</ele>
        <time>2018-09-08T11:30:19Z</time>
      </trkpt>
      <trkpt lat="42.998117" lon="-2.442439">
        <ele>546.250</ele>
        <time>2018-09-08T11:30:23Z</time>
      </trkpt>
      <trkpt lat="42.998162" lon="-2.442454">
        <ele>547.216</ele>
        <time>2018-09-08T11:30:27Z</time>
      </trkpt>
      <trkpt lat="42.998208" lon="-2.442442">
        <ele>548.213</ele>
        <time>2018-09-08T11:30:37Z</time>
      </trkpt>
      <trkpt lat="42.998243" lon="-2.442403">
        <ele>548.928</ele>
        <time>2018-09-08T11:30:55Z</time>
      </trkpt>
      <trkpt lat="42.998289" lon="-2.442400">
        <ele>550.044</ele>
        <time>2018-09-08T11:31:00Z</time>
      </trkpt>
      <trkpt lat="42.998334" lon="-2.442370">
        <ele>551.014</ele>
        <time>2018-09-08T11:31:10Z</time>
      </trkpt>
      <trkpt lat="42.998378" lon="-2.442336">
        <ele>552.036</ele>
        <time>2018-09-08T11:31:16Z</time>
      </trkpt>
      <trkpt lat="42.998432" lon="-2.442325">
        <ele>553.164</ele>
        <time>2018-09-08T11:31:22Z</time>
      </trkpt>
      <trkpt lat="42.998476" lon="-2.442355">
        <ele>554.106</ele>
        <time>2018-09-08T11:31:30Z</time>
      </trkpt>
      <trkpt lat="42.998524" lon="-2.442346">
        <ele>555.116</ele>
        <time>2018-09-08T11:32:19Z</time>
      </trkpt>
      <trkpt lat="42.998563" lon="-2.442379">
        <ele>556.008</ele>
        <time>2018-09-08T11:32:24Z</time>
      </trkpt>
      <trkpt lat="42.998608" lon="-2.442367">
        <ele>556.968</ele>
        <time>2018-09-08T11:32:30Z</time>
      </trkpt>
      <trkpt lat="42.998649" lon="-2.442337">
        <ele>557.934</ele>
        <time>2018-09-08T11:32:34Z</time>
      </trkpt>
      <trkpt lat="42.998689" lon="-2.442300">
        <ele>558.840</ele>
        <time>2018-09-08T11:32:37Z</time>
      </trkpt>
      <trkpt lat="42.998706" lon="-2.442232">
        <ele>559.137</ele>
        <time>2018-09-08T11:32:42Z</time>
      </trkpt>
      <trkpt lat="42.998756" lon="-2.442204">
        <ele>560.042</ele>
        <time>2018-09-08T11:32:48Z</time>
      </trkpt>
      <trkpt lat="42.998804" lon="-2.442182">
        <ele>560.898</ele>
        <time>2018-09-08T11:32:52Z</time>
      </trkpt>
      <trkpt lat="42.998862" lon="-2.442161">
        <ele>562.078</ele>
        <time>2018-09-08T11:32:56Z</time>
      </trkpt>
      <trkpt lat="42.998919" lon="-2.442166">
        <ele>563.240</ele>
        <time>2018-09-08T11:33:00Z</time>
      </trkpt>
      <trkpt lat="42.998965" lon="-2.442169">
        <ele>564.295</ele>
        <time>2018-09-08T11:33:03Z</time>
      </trkpt>
      <trkpt lat="42.999015" lon="-2.442185">
        <ele>565.449</ele>
        <time>2018-09-08T11:33:06Z</time>
      </trkpt>
      <trkpt lat="42.999064" lon="-2.442210">
        <ele>566.723</ele>
        <time>2018-09-08T11:33:09Z</time>
      </trkpt>
      <trkpt lat="42.999117" lon="-2.442229">
        <ele>568.008</ele>
        <time>2018-09-08T11:33:12Z</time>
      </trkpt>
      <trkpt lat="42.999166" lon="-2.442260">
        <ele>569.381</ele>
        <time>2018-09-08T11:33:15Z</time>
      </trkpt>
      <trkpt lat="42.999214" lon="-2.442261">
        <ele>570.377</ele>
        <time>2018-09-08T11:33:18Z</time>
      </trkpt>
      <trkpt lat="42.999265" lon="-2.442250">
        <ele>571.363</ele>
        <time>2018-09-08T11:33:22Z</time>
      </trkpt>
      <trkpt lat="42.999313" lon="-2.442247">
        <ele>572.350</ele>
        <time>2018-09-08T11:33:26Z</time>
      </trkpt>
      <trkpt lat="42.999363" lon="-2.442264">
        <ele>573.525</ele>
        <time>2018-09-08T11:33:30Z</time>
      </trkpt>
      <trkpt lat="42.999416" lon="-2.442281">
        <ele>574.811</ele>
        <time>2018-09-08T11:33:34Z</time>
      </trkpt>
      <trkpt lat="42.999461" lon="-2.442289">
        <ele>575.821</ele>
        <time>2018-09-08T11:33:37Z</time>
      </trkpt>
      <trkpt lat="42.999509" lon="-2.442286">
        <ele>576.983</ele>
        <time>2018-09-08T11:33:42Z</time>
      </trkpt>
      <trkpt lat="42.999555" lon="-2.442274">
        <ele>577.828</ele>
        <time>2018-09-08T11:33:49Z</time>
      </trkpt>
      <trkpt lat="42.999604" lon="-2.442281">
        <ele>578.989</ele>
        <time>2018-09-08T11:33:55Z</time>
      </trkpt>
      <trkpt lat="42.999650" lon="-2.442281">
        <ele>579.917</ele>
        <time>2018-09-08T11:34:01Z</time>
      </trkpt>
      <trkpt lat="42.999694" lon="-2.442301">
        <ele>581.008</ele>
        <time>2018-09-08T11:34:08Z</time>
      </trkpt>
      <trkpt lat="42.999744" lon="-2.442310">
        <ele>581.934</ele>
        <time>2018-09-08T11:34:15Z</time>
      </trkpt>
      <trkpt lat="42.999788" lon="-2.442341">
        <ele>582.820</ele>
        <time>2018-09-08T11:34:22Z</time>
      </trkpt>
      <trkpt lat="42.999835" lon="-2.442327">
        <ele>583.466</ele>
        <time>2018-09-08T11:34:27Z</time>
      </trkpt>
      <trkpt lat="42.999867" lon="-2.442379">
        <ele>584.233</ele>
        <time>2018-09-08T11:34:35Z</time>
      </trkpt>
      <trkpt lat="42.999917" lon="-2.442376">
        <ele>584.968</ele>
        <time>2018-09-08T11:34:43Z</time>
      </trkpt>
      <trkpt lat="42.999967" lon="-2.442346">
        <ele>585.424</ele>
        <time>2018-09-08T11:34:50Z</time>
      </trkpt>
      <trkpt lat="43.000018" lon="-2.442335">
        <ele>586.174</ele>
        <time>2018-09-08T11:34:54Z</time>
      </trkpt>
      <trkpt lat="43.000073" lon="-2.442340">
        <ele>587.216</ele>
        <time>2018-09-08T11:34:58Z</time>
      </trkpt>
      <trkpt lat="43.000124" lon="-2.442351">
        <ele>588.294</ele>
        <time>2018-09-08T11:35:04Z</time>
      </trkpt>
      <trkpt lat="43.000170" lon="-2.442366">
        <ele>589.157</ele>
        <time>2018-09-08T11:35:11Z</time>
      </trkpt>
      <trkpt lat="43.000150" lon="-2.442421">
        <ele>589.122</ele>
        <time>2018-09-08T11:36:27Z</time>
      </trkpt>
      <trkpt lat="43.000110" lon="-2.442452">
        <ele>588.608</ele>
        <time>2018-09-08T11:39:59Z</time>
      </trkpt>
      <trkpt lat="43.000061" lon="-2.442431">
        <ele>587.671</ele>
        <time>2018-09-08T11:40:20Z</time>
      </trkpt>
      <trkpt lat="43.000104" lon="-2.442405">
        <ele>588.287</ele>
        <time>2018-09-08T11:40:45Z</time>
      </trkpt>
      <trkpt lat="43.000144" lon="-2.442371">
        <ele>588.723</ele>
        <time>2018-09-08T11:42:50Z</time>
      </trkpt>
      <trkpt lat="43.000181" lon="-2.442325">
        <ele>589.020</ele>
        <time>2018-09-08T11:42:56Z</time>
      </trkpt>
      <trkpt lat="43.000234" lon="-2.442316">
        <ele>589.975</ele>
        <time>2018-09-08T11:43:02Z</time>
      </trkpt>
      <trkpt lat="43.000281" lon="-2.442333">
        <ele>590.961</ele>
        <time>2018-09-08T11:43:07Z</time>
      </trkpt>
      <trkpt lat="43.000331" lon="-2.442351">
        <ele>592.491</ele>
        <time>2018-09-08T11:43:13Z</time>
      </trkpt>
      <trkpt lat="43.000377" lon="-2.442353">
        <ele>593.653</ele>
        <time>2018-09-08T11:43:18Z</time>
      </trkpt>
      <trkpt lat="43.000418" lon="-2.442388">
        <ele>595.024</ele>
        <time>2018-09-08T11:43:26Z</time>
      </trkpt>
      <trkpt lat="43.000450" lon="-2.442434">
        <ele>596.304</ele>
        <time>2018-09-08T11:43:33Z</time>
      </trkpt>
      <trkpt lat="43.000496" lon="-2.442456">
        <ele>597.814</ele>
        <time>2018-09-08T11:43:40Z</time>
      </trkpt>
      <trkpt lat="43.000539" lon="-2.442485">
        <ele>599.408</ele>
        <time>2018-09-08T11:43:51Z</time>
      </trkpt>
      <trkpt lat="43.000586" lon="-2.442501">
        <ele>601.054</ele>
        <time>2018-09-08T11:44:10Z</time>
      </trkpt>
      <trkpt lat="43.000629" lon="-2.442535">
        <ele>602.370</ele>
        <time>2018-09-08T11:44:18Z</time>
      </trkpt>
      <trkpt lat="43.000672" lon="-2.442561">
        <ele>603.716</ele>
        <time>2018-09-08T11:44:25Z</time>
      </trkpt>
      <trkpt lat="43.000720" lon="-2.442541">
        <ele>605.213</ele>
        <time>2018-09-08T11:44:34Z</time>
      </trkpt>
      <trkpt lat="43.000766" lon="-2.442516">
        <ele>606.818</ele>
        <time>2018-09-08T11:44:44Z</time>
      </trkpt>
      <trkpt lat="43.000812" lon="-2.442487">
        <ele>608.234</ele>
        <time>2018-09-08T11:44:52Z</time>
      </trkpt>
      <trkpt lat="43.000853" lon="-2.442457">
        <ele>609.064</ele>
        <time>2018-09-08T11:45:01Z</time>
      </trkpt>
      <trkpt lat="43.000890" lon="-2.442420">
        <ele>609.486</ele>
        <time>2018-09-08T11:45:08Z</time>
      </trkpt>
      <trkpt lat="43.000929" lon="-2.442387">
        <ele>609.853</ele>
        <time>2018-09-08T11:45:13Z</time>
      </trkpt>
      <trkpt lat="43.000972" lon="-2.442354">
        <ele>610.104</ele>
        <time>2018-09-08T11:45:19Z</time>
      </trkpt>
      <trkpt lat="43.001018" lon="-2.442350">
        <ele>611.014</ele>
        <time>2018-09-08T11:45:25Z</time>
      </trkpt>
      <trkpt lat="43.001069" lon="-2.442331">
        <ele>611.608</ele>
        <time>2018-09-08T11:45:32Z</time>
      </trkpt>
      <trkpt lat="43.001115" lon="-2.442323">
        <ele>612.267</ele>
        <time>2018-09-08T11:45:37Z</time>
      </trkpt>
      <trkpt lat="43.001160" lon="-2.442302">
        <ele>612.043</ele>
        <time>2018-09-08T11:46:01Z</time>
      </trkpt>
      <trkpt lat="43.001201" lon="-2.442265">
        <ele>611.529</ele>
        <time>2018-09-08T11:46:07Z</time>
      </trkpt>
      <trkpt lat="43.001253" lon="-2.442247">
        <ele>611.586</ele>
        <time>2018-09-08T11:46:13Z</time>
      </trkpt>
      <trkpt lat="43.001303" lon="-2.442238">
        <ele>611.751</ele>
        <time>2018-09-08T11:46:19Z</time>
      </trkpt>
      <trkpt lat="43.001346" lon="-2.442266">
        <ele>612.587</ele>
        <time>2018-09-08T11:46:26Z</time>
      </trkpt>
      <trkpt lat="43.001383" lon="-2.442308">
        <ele>613.537</ele>
        <time>2018-09-08T11:46:34Z</time>
      </trkpt>
      <trkpt lat="43.001428" lon="-2.442329">
        <ele>613.429</ele>
        <time>2018-09-08T11:46:41Z</time>
      </trkpt>
      <trkpt lat="43.001474" lon="-2.442306">
        <ele>612.449</ele>
        <time>2018-09-08T11:46:48Z</time>
      </trkpt>
      <trkpt lat="43.001515" lon="-2.442267">
        <ele>611.302</ele>
        <time>2018-09-08T11:46:54Z</time>
      </trkpt>
      <trkpt lat="43.001556" lon="-2.442225">
        <ele>610.222</ele>
        <time>2018-09-08T11:47:01Z</time>
      </trkpt>
      <trkpt lat="43.001597" lon="-2.442194">
        <ele>609.508</ele>
        <time>2018-09-08T11:47:18Z</time>
      </trkpt>
      <trkpt lat="43.001626" lon="-2.442138">
        <ele>608.986</ele>
        <time>2018-09-08T11:47:24Z</time>
      </trkpt>
      <trkpt lat="43.001655" lon="-2.442079">
        <ele>608.522</ele>
        <time>2018-09-08T11:47:29Z</time>
      </trkpt>
      <trkpt lat="43.001689" lon="-2.442037">
        <ele>608.528</ele>
        <time>2018-09-08T11:47:35Z</time>
      </trkpt>
      <trkpt lat="43.001742" lon="-2.442017">
        <ele>608.985</ele>
        <time>2018-09-08T11:47:40Z</time>
      </trkpt>
      <trkpt lat="43.001787" lon="-2.441983">
        <ele>609.330</ele>
        <time>2018-09-08T11:47:46Z</time>
      </trkpt>
      <trkpt lat="43.001829" lon="-2.441954">
        <ele>609.726</ele>
        <time>2018-09-08T11:47:54Z</time>
      </trkpt>
      <trkpt lat="43.001842" lon="-2.441891">
        <ele>609.416</ele>
        <time>2018-09-08T11:48:01Z</time>
      </trkpt>
      <trkpt lat="43.001866" lon="-2.441835">
        <ele>609.128</ele>
        <time>2018-09-08T11:48:07Z</time>
      </trkpt>
      <trkpt lat="43.001892" lon="-2.441779">
        <ele>609.089</ele>
        <time>2018-09-08T11:48:14Z</time>
      </trkpt>
      <trkpt lat="43.001884" lon="-2.441708">
        <ele>608.306</ele>
        <time>2018-09-08T11:48:19Z</time>
      </trkpt>
      <trkpt lat="43.001919" lon="-2.441667">
        <ele>608.526</ele>
        <time>2018-09-08T11:48:25Z</time>
      </trkpt>
      <trkpt lat="43.001952" lon="-2.441611">
        <ele>608.908</ele>
        <time>2018-09-08T11:48:30Z</time>
      </trkpt>
      <trkpt lat="43.001999" lon="-2.441613">
        <ele>609.910</ele>
        <time>2018-09-08T11:48:35Z</time>
      </trkpt>
      <trkpt lat="43.002044" lon="-2.441609">
        <ele>610.756</ele>
        <time>2018-09-08T11:48:40Z</time>
      </trkpt>
      <trkpt lat="43.002090" lon="-2.441600">
        <ele>611.652</ele>
        <time>2018-09-08T11:48:46Z</time>
      </trkpt>
      <trkpt lat="43.002137" lon="-2.441597">
        <ele>612.639</ele>
        <time>2018-09-08T11:48:52Z</time>
      </trkpt>
      <trkpt lat="43.002179" lon="-2.441625">
        <ele>613.364</ele>
        <time>2018-09-08T11:48:59Z</time>
      </trkpt>
      <trkpt lat="43.002204" lon="-2.441573">
        <ele>614.090</ele>
        <time>2018-09-08T11:49:05Z</time>
      </trkpt>
      <trkpt lat="43.002240" lon="-2.441640">
        <ele>614.580</ele>
        <time>2018-09-08T11:49:09Z</time>
      </trkpt>
      <trkpt lat="43.002256" lon="-2.441699">
        <ele>615.252</ele>
        <time>2018-09-08T11:49:12Z</time>
      </trkpt>
      <trkpt lat="43.002301" lon="-2.441711">
        <ele>616.531</ele>
        <time>2018-09-08T11:50:34Z</time>
      </trkpt>
      <trkpt lat="43.002348" lon="-2.441706">
        <ele>617.761</ele>
        <time>2018-09-08T11:50:45Z</time>
      </trkpt>
      <trkpt lat="43.002353" lon="-2.441629">
        <ele>617.007</ele>
        <time>2018-09-08T11:50:57Z</time>
      </trkpt>
      <trkpt lat="43.002320" lon="-2.441585">
        <ele>616.108</ele>
        <time>2018-09-08T11:51:08Z</time>
      </trkpt>
      <trkpt lat="43.002315" lon="-2.441523">
        <ele>615.865</ele>
        <time>2018-09-08T11:51:23Z</time>
      </trkpt>
      <trkpt lat="43.002360" lon="-2.441490">
        <ele>616.251</ele>
        <time>2018-09-08T11:52:07Z</time>
      </trkpt>
      <trkpt lat="43.002406" lon="-2.441471">
        <ele>616.567</ele>
        <time>2018-09-08T11:52:12Z</time>
      </trkpt>
      <trkpt lat="43.002436" lon="-2.441419">
        <ele>616.254</ele>
        <time>2018-09-08T11:52:33Z</time>
      </trkpt>
      <trkpt lat="43.002442" lon="-2.441346">
        <ele>614.399</ele>
        <time>2018-09-08T11:52:42Z</time>
      </trkpt>
      <trkpt lat="43.002439" lon="-2.441415">
        <ele>616.115</ele>
        <time>2018-09-08T11:54:12Z</time>
      </trkpt>
      <trkpt lat="43.002393" lon="-2.441429">
        <ele>616.095</ele>
        <time>2018-09-08T11:55:18Z</time>
      </trkpt>
      <trkpt lat="43.002391" lon="-2.441363">
        <ele>614.977</ele>
        <time>2018-09-08T11:56:01Z</time>
      </trkpt>
      <trkpt lat="43.002355" lon="-2.441324">
        <ele>614.137</ele>
        <time>2018-09-08T11:56:08Z</time>
      </trkpt>
      <trkpt lat="43.002347" lon="-2.441245">
        <ele>612.749</ele>
        <time>2018-09-08T11:56:33Z</time>
      </trkpt>
      <trkpt lat="43.002391" lon="-2.441268">
        <ele>612.413</ele>
        <time>2018-09-08T11:57:28Z</time>
      </trkpt>
      <trkpt lat="43.002414" lon="-2.441325">
        <ele>613.808</ele>
        <time>2018-09-08T11:57:35Z</time>
      </trkpt>
      <trkpt lat="43.002368" lon="-2.441281">
        <ele>613.125</ele>
        <time>2018-09-08T11:57:45Z</time>
      </trkpt>
      <trkpt lat="43.002337" lon="-2.441236">
        <ele>612.711</ele>
        <time>2018-09-08T12:00:32Z</time>
      </trkpt>
      <trkpt lat="43.002305" lon="-2.441189">
        <ele>612.767</ele>
        <time>2018-09-08T12:01:38Z</time>
      </trkpt>
      <trkpt lat="43.002275" lon="-2.441246">
        <ele>614.044</ele>
        <time>2018-09-08T12:01:44Z</time>
      </trkpt>
      <trkpt lat="43.002290" lon="-2.441304">
        <ele>614.339</ele>
        <time>2018-09-08T12:01:48Z</time>
      </trkpt>
      <trkpt lat="43.002322" lon="-2.441363">
        <ele>615.095</ele>
        <time>2018-09-08T12:01:51Z</time>
      </trkpt>
      <trkpt lat="43.002297" lon="-2.441563">
        <ele>615.775</ele>
        <time>2018-09-08T12:02:14Z</time>
      </trkpt>
      <trkpt lat="43.002279" lon="-2.441636">
        <ele>615.417</ele>
        <time>2018-09-08T12:02:53Z</time>
      </trkpt>
      <trkpt lat="43.002336" lon="-2.441679">
        <ele>617.087</ele>
        <time>2018-09-08T12:05:01Z</time>
      </trkpt>
      <trkpt lat="43.002328" lon="-2.441617">
        <ele>616.442</ele>
        <time>2018-09-08T12:06:30Z</time>
      </trkpt>
      <trkpt lat="43.002274" lon="-2.441645">
        <ele>615.326</ele>
        <time>2018-09-08T12:06:36Z</time>
      </trkpt>
      <trkpt lat="43.002240" lon="-2.441694">
        <ele>614.708</ele>
        <time>2018-09-08T12:06:41Z</time>
      </trkpt>
      <trkpt lat="43.002228" lon="-2.441765">
        <ele>615.220</ele>
        <time>2018-09-08T12:06:48Z</time>
      </trkpt>
      <trkpt lat="43.002231" lon="-2.441838">
        <ele>616.126</ele>
        <time>2018-09-08T12:06:53Z</time>
      </trkpt>
      <trkpt lat="43.002266" lon="-2.441894">
        <ele>617.782</ele>
        <time>2018-09-08T12:06:57Z</time>
      </trkpt>
      <trkpt lat="43.002249" lon="-2.441959">
        <ele>617.889</ele>
        <time>2018-09-08T12:07:12Z</time>
      </trkpt>
      <trkpt lat="43.002229" lon="-2.442016">
        <ele>617.214</ele>
        <time>2018-09-08T12:07:16Z</time>
      </trkpt>
      <trkpt lat="43.002275" lon="-2.441985">
        <ele>618.650</ele>
        <time>2018-09-08T12:07:26Z</time>
      </trkpt>
      <trkpt lat="43.002262" lon="-2.441921">
        <ele>617.990</ele>
        <time>2018-09-08T12:07:58Z</time>
      </trkpt>
      <trkpt lat="43.002298" lon="-2.441880">
        <ele>618.432</ele>
        <time>2018-09-08T12:08:44Z</time>
      </trkpt>
      <trkpt lat="43.002295" lon="-2.441817">
        <ele>617.672</ele>
        <time>2018-09-08T12:09:03Z</time>
      </trkpt>
      <trkpt lat="43.002280" lon="-2.441754">
        <ele>616.513</ele>
        <time>2018-09-08T12:09:10Z</time>
      </trkpt>
      <trkpt lat="43.002295" lon="-2.441689">
        <ele>616.114</ele>
        <time>2018-09-08T12:09:16Z</time>
      </trkpt>
      <trkpt lat="43.002325" lon="-2.441641">
        <ele>616.508</ele>
        <time>2018-09-08T12:09:26Z</time>
      </trkpt>
      <trkpt lat="43.002330" lon="-2.441572">
        <ele>616.379</ele>
        <time>2018-09-08T12:11:11Z</time>
      </trkpt>
      <trkpt lat="43.002351" lon="-2.441516">
        <ele>616.325</ele>
        <time>2018-09-08T12:11:50Z</time>
      </trkpt>
      <trkpt lat="43.002368" lon="-2.441452">
        <ele>616.071</ele>
        <time>2018-09-08T12:13:35Z</time>
      </trkpt>
      <trkpt lat="43.002374" lon="-2.441378">
        <ele>615.338</ele>
        <time>2018-09-08T12:13:38Z</time>
      </trkpt>
      <trkpt lat="43.002425" lon="-2.441363">
        <ele>614.943</ele>
        <time>2018-09-08T12:13:41Z</time>
      </trkpt>
      <trkpt lat="43.002475" lon="-2.441393">
        <ele>616.099</ele>
        <time>2018-09-08T12:13:44Z</time>
      </trkpt>
      <trkpt lat="43.002503" lon="-2.441445">
        <ele>617.059</ele>
        <time>2018-09-08T12:13:47Z</time>
      </trkpt>
      <trkpt lat="43.002539" lon="-2.441486">
        <ele>617.711</ele>
        <time>2018-09-08T12:13:51Z</time>
      </trkpt>
      <trkpt lat="43.002499" lon="-2.441453">
        <ele>617.138</ele>
        <time>2018-09-08T12:14:37Z</time>
      </trkpt>
      <trkpt lat="43.002498" lon="-2.441386">
        <ele>615.970</ele>
        <time>2018-09-08T12:15:35Z</time>
      </trkpt>
      <trkpt lat="43.002488" lon="-2.441321">
        <ele>613.217</ele>
        <time>2018-09-08T12:15:43Z</time>
      </trkpt>
      <trkpt lat="43.002494" lon="-2.441258">
        <ele>610.408</ele>
        <time>2018-09-08T12:16:26Z</time>
      </trkpt>
      <trkpt lat="43.002630" lon="-2.441286">
        <ele>597.275</ele>
        <time>2018-09-08T12:17:13Z</time>
      </trkpt>
      <trkpt lat="43.002691" lon="-2.441291">
        <ele>591.511</ele>
        <time>2018-09-08T12:17:14Z</time>
      </trkpt>
      <trkpt lat="43.002743" lon="-2.441282">
        <ele>583.987</ele>
        <time>2018-09-08T12:17:18Z</time>
      </trkpt>
      <trkpt lat="43.002789" lon="-2.441247">
        <ele>568.154</ele>
        <time>2018-09-08T12:17:22Z</time>
      </trkpt>
      <trkpt lat="43.002825" lon="-2.441209">
        <ele>551.029</ele>
        <time>2018-09-08T12:17:28Z</time>
      </trkpt>
      <trkpt lat="43.002869" lon="-2.441177">
        <ele>535.385</ele>
        <time>2018-09-08T12:17:38Z</time>
      </trkpt>
      <trkpt lat="43.002876" lon="-2.441244">
        <ele>547.655</ele>
        <time>2018-09-08T12:19:32Z</time>
      </trkpt>
      <trkpt lat="43.002914" lon="-2.441286">
        <ele>546.757</ele>
        <time>2018-09-08T12:19:38Z</time>
      </trkpt>
      <trkpt lat="43.002957" lon="-2.441328">
        <ele>542.485</ele>
        <time>2018-09-08T12:19:41Z</time>
      </trkpt>
      <trkpt lat="43.002994" lon="-2.441366">
        <ele>537.289</ele>
        <time>2018-09-08T12:19:46Z</time>
      </trkpt>
      <trkpt lat="43.002982" lon="-2.441431">
        <ele>556.517</ele>
        <time>2018-09-08T12:20:04Z</time>
      </trkpt>
      <trkpt lat="43.002964" lon="-2.441502">
        <ele>581.008</ele>
        <time>2018-09-08T12:20:46Z</time>
      </trkpt>
      <trkpt lat="43.002926" lon="-2.441569">
        <ele>604.740</ele>
        <time>2018-09-08T12:20:56Z</time>
      </trkpt>
      <trkpt lat="43.002964" lon="-2.441528">
        <ele>588.236</ele>
        <time>2018-09-08T12:22:14Z</time>
      </trkpt>
      <trkpt lat="43.002921" lon="-2.441551">
        <ele>601.242</ele>
        <time>2018-09-08T12:22:38Z</time>
      </trkpt>
      <trkpt lat="43.002876" lon="-2.441581">
        <ele>613.879</ele>
        <time>2018-09-08T12:22:44Z</time>
      </trkpt>
      <trkpt lat="43.002825" lon="-2.441610">
        <ele>624.264</ele>
        <time>2018-09-08T12:22:51Z</time>
      </trkpt>
      <trkpt lat="43.002783" lon="-2.441652">
        <ele>632.370</ele>
        <time>2018-09-08T12:22:56Z</time>
      </trkpt>
      <trkpt lat="43.002760" lon="-2.441708">
        <ele>633.820</ele>
        <time>2018-09-08T12:23:00Z</time>
      </trkpt>
      <trkpt lat="43.002831" lon="-2.441683">
        <ele>632.422</ele>
        <time>2018-09-08T12:23:22Z</time>
      </trkpt>
      <trkpt lat="43.002793" lon="-2.441720">
        <ele>634.448</ele>
        <time>2018-09-08T12:23:41Z</time>
      </trkpt>
      <trkpt lat="43.002750" lon="-2.441744">
        <ele>633.861</ele>
        <time>2018-09-08T12:24:59Z</time>
      </trkpt>
      <trkpt lat="43.002730" lon="-2.441801">
        <ele>633.717</ele>
        <time>2018-09-08T12:25:12Z</time>
      </trkpt>
      <trkpt lat="43.002698" lon="-2.441751">
        <ele>631.508</ele>
        <time>2018-09-08T12:25:55Z</time>
      </trkpt>
      <trkpt lat="43.002427" lon="-2.441519">
        <ele>617.346</ele>
        <time>2018-09-08T12:26:21Z</time>
      </trkpt>
      <trkpt lat="43.002372" lon="-2.441592">
        <ele>617.212</ele>
        <time>2018-09-08T12:26:36Z</time>
      </trkpt>
      <trkpt lat="43.002343" lon="-2.441535">
        <ele>616.378</ele>
        <time>2018-09-08T12:26:42Z</time>
      </trkpt>
      <trkpt lat="43.002302" lon="-2.441472">
        <ele>615.535</ele>
        <time>2018-09-08T12:26:45Z</time>
      </trkpt>
      <trkpt lat="43.002310" lon="-2.441406">
        <ele>615.460</ele>
        <time>2018-09-08T12:26:49Z</time>
      </trkpt>
      <trkpt lat="43.002391" lon="-2.441375">
        <ele>615.286</ele>
        <time>2018-09-08T12:26:51Z</time>
      </trkpt>
      <trkpt lat="43.002466" lon="-2.441363">
        <ele>614.986</ele>
        <time>2018-09-08T12:26:53Z</time>
      </trkpt>
      <trkpt lat="43.002524" lon="-2.441348">
        <ele>612.878</ele>
        <time>2018-09-08T12:26:55Z</time>
      </trkpt>
      <trkpt lat="43.002568" lon="-2.441330">
        <ele>608.387</ele>
        <time>2018-09-08T12:26:58Z</time>
      </trkpt>
      <trkpt lat="43.002370" lon="-2.441372">
        <ele>615.142</ele>
        <time>2018-09-08T12:27:18Z</time>
      </trkpt>
      <trkpt lat="43.002322" lon="-2.441382">
        <ele>615.326</ele>
        <time>2018-09-08T12:27:20Z</time>
      </trkpt>
      <trkpt lat="43.002350" lon="-2.441330">
        <ele>614.308</ele>
        <time>2018-09-08T12:27:31Z</time>
      </trkpt>
      <trkpt lat="43.002351" lon="-2.441392">
        <ele>615.520</ele>
        <time>2018-09-08T12:27:38Z</time>
      </trkpt>
      <trkpt lat="43.002340" lon="-2.441460">
        <ele>615.846</ele>
        <time>2018-09-08T12:27:39Z</time>
      </trkpt>
      <trkpt lat="43.002333" lon="-2.441551">
        <ele>616.242</ele>
        <time>2018-09-08T12:27:41Z</time>
      </trkpt>
      <trkpt lat="43.002321" lon="-2.441635">
        <ele>616.449</ele>
        <time>2018-09-08T12:27:43Z</time>
      </trkpt>
      <trkpt lat="43.002312" lon="-2.441709">
        <ele>616.864</ele>
        <time>2018-09-08T12:27:45Z</time>
      </trkpt>
      <trkpt lat="43.002306" lon="-2.441777">
        <ele>617.490</ele>
        <time>2018-09-08T12:27:57Z</time>
      </trkpt>
      <trkpt lat="43.002297" lon="-2.441714">
        <ele>616.470</ele>
        <time>2018-09-08T12:28:02Z</time>
      </trkpt>
      <trkpt lat="43.002269" lon="-2.441653">
        <ele>615.242</ele>
        <time>2018-09-08T12:28:07Z</time>
      </trkpt>
      <trkpt lat="43.002222" lon="-2.441651">
        <ele>614.124</ele>
        <time>2018-09-08T12:29:33Z</time>
      </trkpt>
      <trkpt lat="43.002171" lon="-2.441628">
        <ele>613.204</ele>
        <time>2018-09-08T12:30:11Z</time>
      </trkpt>
      <trkpt lat="43.002119" lon="-2.441631">
        <ele>612.214</ele>
        <time>2018-09-08T12:30:16Z</time>
      </trkpt>
      <trkpt lat="43.002073" lon="-2.441624">
        <ele>611.308</ele>
        <time>2018-09-08T12:30:21Z</time>
      </trkpt>
      <trkpt lat="43.002018" lon="-2.441630">
        <ele>610.394</ele>
        <time>2018-09-08T12:30:26Z</time>
      </trkpt>
      <trkpt lat="43.001981" lon="-2.441678">
        <ele>609.790</ele>
        <time>2018-09-08T12:30:32Z</time>
      </trkpt>
      <trkpt lat="43.001941" lon="-2.441718">
        <ele>609.346</ele>
        <time>2018-09-08T12:30:37Z</time>
      </trkpt>
      <trkpt lat="43.001904" lon="-2.441771">
        <ele>609.133</ele>
        <time>2018-09-08T12:30:42Z</time>
      </trkpt>
      <trkpt lat="43.001891" lon="-2.441840">
        <ele>609.588</ele>
        <time>2018-09-08T12:30:48Z</time>
      </trkpt>
      <trkpt lat="43.001873" lon="-2.441909">
        <ele>609.944</ele>
        <time>2018-09-08T12:30:54Z</time>
      </trkpt>
      <trkpt lat="43.001855" lon="-2.441971">
        <ele>610.094</ele>
        <time>2018-09-08T12:31:00Z</time>
      </trkpt>
      <trkpt lat="43.001818" lon="-2.442019">
        <ele>609.616</ele>
        <time>2018-09-08T12:31:09Z</time>
      </trkpt>
      <trkpt lat="43.001785" lon="-2.442068">
        <ele>609.327</ele>
        <time>2018-09-08T12:31:14Z</time>
      </trkpt>
      <trkpt lat="43.001744" lon="-2.442102">
        <ele>609.168</ele>
        <time>2018-09-08T12:31:20Z</time>
      </trkpt>
      <trkpt lat="43.001699" lon="-2.442130">
        <ele>608.914</ele>
        <time>2018-09-08T12:31:26Z</time>
      </trkpt>
      <trkpt lat="43.001647" lon="-2.442122">
        <ele>608.708</ele>
        <time>2018-09-08T12:31:33Z</time>
      </trkpt>
      <trkpt lat="43.001603" lon="-2.442157">
        <ele>609.274</ele>
        <time>2018-09-08T12:31:43Z</time>
      </trkpt>
      <trkpt lat="43.001623" lon="-2.442214">
        <ele>609.420</ele>
        <time>2018-09-08T12:31:53Z</time>
      </trkpt>
      <trkpt lat="43.001585" lon="-2.442248">
        <ele>610.216</ele>
        <time>2018-09-08T12:32:15Z</time>
      </trkpt>
      <trkpt lat="43.001556" lon="-2.442301">
        <ele>611.363</ele>
        <time>2018-09-08T12:32:21Z</time>
      </trkpt>
      <trkpt lat="43.001515" lon="-2.442341">
        <ele>612.458</ele>
        <time>2018-09-08T12:32:30Z</time>
      </trkpt>
      <trkpt lat="43.001465" lon="-2.442356">
        <ele>613.394</ele>
        <time>2018-09-08T12:32:36Z</time>
      </trkpt>
      <trkpt lat="43.001417" lon="-2.442335">
        <ele>613.634</ele>
        <time>2018-09-08T12:32:44Z</time>
      </trkpt>
      <trkpt lat="43.001383" lon="-2.442289">
        <ele>613.286</ele>
        <time>2018-09-08T12:32:50Z</time>
      </trkpt>
      <trkpt lat="43.001338" lon="-2.442278">
        <ele>612.778</ele>
        <time>2018-09-08T12:32:55Z</time>
      </trkpt>
      <trkpt lat="43.001281" lon="-2.442269">
        <ele>612.133</ele>
        <time>2018-09-08T12:32:59Z</time>
      </trkpt>
      <trkpt lat="43.001229" lon="-2.442272">
        <ele>611.826</ele>
        <time>2018-09-08T12:33:04Z</time>
      </trkpt>
      <trkpt lat="43.001180" lon="-2.442302">
        <ele>612.108</ele>
        <time>2018-09-08T12:33:09Z</time>
      </trkpt>
      <trkpt lat="43.001136" lon="-2.442321">
        <ele>612.359</ele>
        <time>2018-09-08T12:33:14Z</time>
      </trkpt>
      <trkpt lat="43.001089" lon="-2.442355">
        <ele>612.415</ele>
        <time>2018-09-08T12:33:20Z</time>
      </trkpt>
      <trkpt lat="43.001042" lon="-2.442382">
        <ele>612.061</ele>
        <time>2018-09-08T12:33:25Z</time>
      </trkpt>
      <trkpt lat="43.000995" lon="-2.442391">
        <ele>611.238</ele>
        <time>2018-09-08T12:33:32Z</time>
      </trkpt>
      <trkpt lat="43.000944" lon="-2.442406">
        <ele>610.443</ele>
        <time>2018-09-08T12:33:37Z</time>
      </trkpt>
      <trkpt lat="43.000894" lon="-2.442434">
        <ele>609.779</ele>
        <time>2018-09-08T12:33:41Z</time>
      </trkpt>
      <trkpt lat="43.000847" lon="-2.442450">
        <ele>608.879</ele>
        <time>2018-09-08T12:33:47Z</time>
      </trkpt>
      <trkpt lat="43.000814" lon="-2.442494">
        <ele>608.341</ele>
        <time>2018-09-08T12:33:52Z</time>
      </trkpt>
      <trkpt lat="43.000769" lon="-2.442514">
        <ele>606.939</ele>
        <time>2018-09-08T12:33:57Z</time>
      </trkpt>
      <trkpt lat="43.000728" lon="-2.442549">
        <ele>605.501</ele>
        <time>2018-09-08T12:34:03Z</time>
      </trkpt>
      <trkpt lat="43.000684" lon="-2.442582">
        <ele>604.021</ele>
        <time>2018-09-08T12:34:10Z</time>
      </trkpt>
      <trkpt lat="43.000648" lon="-2.442539">
        <ele>602.908</ele>
        <time>2018-09-08T12:34:15Z</time>
      </trkpt>
      <trkpt lat="43.000603" lon="-2.442518">
        <ele>601.515</ele>
        <time>2018-09-08T12:34:21Z</time>
      </trkpt>
      <trkpt lat="43.000580" lon="-2.442454">
        <ele>600.331</ele>
        <time>2018-09-08T12:34:28Z</time>
      </trkpt>
      <trkpt lat="43.000533" lon="-2.442433">
        <ele>598.617</ele>
        <time>2018-09-08T12:34:36Z</time>
      </trkpt>
      <trkpt lat="43.000484" lon="-2.442424">
        <ele>597.274</ele>
        <time>2018-09-08T12:34:52Z</time>
      </trkpt>
      <trkpt lat="43.000438" lon="-2.442408">
        <ele>595.819</ele>
        <time>2018-09-08T12:35:01Z</time>
      </trkpt>
      <trkpt lat="43.000411" lon="-2.442352">
        <ele>594.515</ele>
        <time>2018-09-08T12:35:11Z</time>
      </trkpt>
      <trkpt lat="43.000366" lon="-2.442332">
        <ele>593.195</ele>
        <time>2018-09-08T12:35:19Z</time>
      </trkpt>
      <trkpt lat="43.000320" lon="-2.442334">
        <ele>591.977</ele>
        <time>2018-09-08T12:35:52Z</time>
      </trkpt>
      <trkpt lat="43.000274" lon="-2.442315">
        <ele>590.691</ele>
        <time>2018-09-08T12:36:00Z</time>
      </trkpt>
      <trkpt lat="43.000229" lon="-2.442304">
        <ele>589.781</ele>
        <time>2018-09-08T12:36:07Z</time>
      </trkpt>
      <trkpt lat="43.000187" lon="-2.442280">
        <ele>588.819</ele>
        <time>2018-09-08T12:36:12Z</time>
      </trkpt>
      <trkpt lat="43.000147" lon="-2.442311">
        <ele>588.308</ele>
        <time>2018-09-08T12:36:25Z</time>
      </trkpt>
      <trkpt lat="43.000104" lon="-2.442291">
        <ele>587.471</ele>
        <time>2018-09-08T12:36:34Z</time>
      </trkpt>
      <trkpt lat="43.000056" lon="-2.442290">
        <ele>586.597</ele>
        <time>2018-09-08T12:36:41Z</time>
      </trkpt>
      <trkpt lat="43.000022" lon="-2.442336">
        <ele>586.273</ele>
        <time>2018-09-08T12:36:47Z</time>
      </trkpt>
      <trkpt lat="42.999979" lon="-2.442357">
        <ele>585.770</ele>
        <time>2018-09-08T12:36:56Z</time>
      </trkpt>
      <trkpt lat="42.999924" lon="-2.442357">
        <ele>584.995</ele>
        <time>2018-09-08T12:37:01Z</time>
      </trkpt>
      <trkpt lat="42.999879" lon="-2.442317">
        <ele>583.911</ele>
        <time>2018-09-08T12:37:06Z</time>
      </trkpt>
      <trkpt lat="42.999832" lon="-2.442295">
        <ele>583.111</ele>
        <time>2018-09-08T12:37:11Z</time>
      </trkpt>
      <trkpt lat="42.999787" lon="-2.442280">
        <ele>582.343</ele>
        <time>2018-09-08T12:37:16Z</time>
      </trkpt>
      <trkpt lat="42.999736" lon="-2.442265">
        <ele>581.577</ele>
        <time>2018-09-08T12:37:21Z</time>
      </trkpt>
      <trkpt lat="42.999683" lon="-2.442247">
        <ele>580.361</ele>
        <time>2018-09-08T12:37:26Z</time>
      </trkpt>
      <trkpt lat="42.999635" lon="-2.442233">
        <ele>579.227</ele>
        <time>2018-09-08T12:37:30Z</time>
      </trkpt>
      <trkpt lat="42.999581" lon="-2.442217">
        <ele>577.908</ele>
        <time>2018-09-08T12:37:35Z</time>
      </trkpt>
      <trkpt lat="42.999536" lon="-2.442190">
        <ele>576.679</ele>
        <time>2018-09-08T12:37:40Z</time>
      </trkpt>
      <trkpt lat="42.999490" lon="-2.442169">
        <ele>575.455</ele>
        <time>2018-09-08T12:37:44Z</time>
      </trkpt>
      <trkpt lat="42.999443" lon="-2.442169">
        <ele>574.411</ele>
        <time>2018-09-08T12:37:48Z</time>
      </trkpt>
      <trkpt lat="42.999392" lon="-2.442162">
        <ele>573.238</ele>
        <time>2018-09-08T12:37:54Z</time>
      </trkpt>
      <trkpt lat="42.999345" lon="-2.442148">
        <ele>572.093</ele>
        <time>2018-09-08T12:38:00Z</time>
      </trkpt>
      <trkpt lat="42.999293" lon="-2.442144">
        <ele>570.969</ele>
        <time>2018-09-08T12:38:05Z</time>
      </trkpt>
      <trkpt lat="42.999242" lon="-2.442135">
        <ele>569.749</ele>
        <time>2018-09-08T12:38:10Z</time>
      </trkpt>
      <trkpt lat="42.999196" lon="-2.442122">
        <ele>568.641</ele>
        <time>2018-09-08T12:38:15Z</time>
      </trkpt>
      <trkpt lat="42.999151" lon="-2.442095">
        <ele>567.365</ele>
        <time>2018-09-08T12:38:21Z</time>
      </trkpt>
      <trkpt lat="42.999101" lon="-2.442079">
        <ele>566.268</ele>
        <time>2018-09-08T12:38:27Z</time>
      </trkpt>
      <trkpt lat="42.999051" lon="-2.442062">
        <ele>565.014</ele>
        <time>2018-09-08T12:38:35Z</time>
      </trkpt>
      <trkpt lat="42.999006" lon="-2.442058">
        <ele>564.108</ele>
        <time>2018-09-08T12:38:40Z</time>
      </trkpt>
      <trkpt lat="42.998954" lon="-2.442067">
        <ele>563.298</ele>
        <time>2018-09-08T12:38:46Z</time>
      </trkpt>
      <trkpt lat="42.998909" lon="-2.442091">
        <ele>562.564</ele>
        <time>2018-09-08T12:38:52Z</time>
      </trkpt>
      <trkpt lat="42.998857" lon="-2.442115">
        <ele>561.570</ele>
        <time>2018-09-08T12:38:58Z</time>
      </trkpt>
      <trkpt lat="42.998815" lon="-2.442140">
        <ele>560.767</ele>
        <time>2018-09-08T12:39:02Z</time>
      </trkpt>
      <trkpt lat="42.998769" lon="-2.442175">
        <ele>560.012</ele>
        <time>2018-09-08T12:39:07Z</time>
      </trkpt>
      <trkpt lat="42.998732" lon="-2.442231">
        <ele>559.688</ele>
        <time>2018-09-08T12:39:12Z</time>
      </trkpt>
      <trkpt lat="42.998708" lon="-2.442287">
        <ele>559.228</ele>
        <time>2018-09-08T12:39:17Z</time>
      </trkpt>
      <trkpt lat="42.998682" lon="-2.442347">
        <ele>558.680</ele>
        <time>2018-09-08T12:39:22Z</time>
      </trkpt>
      <trkpt lat="42.998633" lon="-2.442377">
        <ele>557.545</ele>
        <time>2018-09-08T12:39:28Z</time>
      </trkpt>
      <trkpt lat="42.998586" lon="-2.442361">
        <ele>556.547</ele>
        <time>2018-09-08T12:39:34Z</time>
      </trkpt>
      <trkpt lat="42.998542" lon="-2.442334">
        <ele>555.511</ele>
        <time>2018-09-08T12:39:39Z</time>
      </trkpt>
      <trkpt lat="42.998498" lon="-2.442321">
        <ele>554.608</ele>
        <time>2018-09-08T12:39:43Z</time>
      </trkpt>
      <trkpt lat="42.998445" lon="-2.442304">
        <ele>553.436</ele>
        <time>2018-09-08T12:39:48Z</time>
      </trkpt>
      <trkpt lat="42.998395" lon="-2.442325">
        <ele>552.362</ele>
        <time>2018-09-08T12:39:52Z</time>
      </trkpt>
      <trkpt lat="42.998350" lon="-2.442360">
        <ele>551.438</ele>
        <time>2018-09-08T12:39:57Z</time>
      </trkpt>
      <trkpt lat="42.998307" lon="-2.442388">
        <ele>550.455</ele>
        <time>2018-09-08T12:40:03Z</time>
      </trkpt>
      <trkpt lat="42.998256" lon="-2.442386">
        <ele>549.290</ele>
        <time>2018-09-08T12:40:09Z</time>
      </trkpt>
      <trkpt lat="42.998210" lon="-2.442396">
        <ele>548.296</ele>
        <time>2018-09-08T12:40:14Z</time>
      </trkpt>
      <trkpt lat="42.998162" lon="-2.442410">
        <ele>547.196</ele>
        <time>2018-09-08T12:40:21Z</time>
      </trkpt>
      <trkpt lat="42.998115" lon="-2.442387">
        <ele>546.058</ele>
        <time>2018-09-08T12:40:28Z</time>
      </trkpt>
      <trkpt lat="42.998077" lon="-2.442353">
        <ele>545.012</ele>
        <time>2018-09-08T12:40:34Z</time>
      </trkpt>
      <trkpt lat="42.998035" lon="-2.442320">
        <ele>543.932</ele>
        <time>2018-09-08T12:40:40Z</time>
      </trkpt>
      <trkpt lat="42.998003" lon="-2.442270">
        <ele>543.005</ele>
        <time>2018-09-08T12:40:47Z</time>
      </trkpt>
      <trkpt lat="42.997983" lon="-2.442212">
        <ele>542.408</ele>
        <time>2018-09-08T12:40:53Z</time>
      </trkpt>
      <trkpt lat="42.997966" lon="-2.442149">
        <ele>541.543</ele>
        <time>2018-09-08T12:40:59Z</time>
      </trkpt>
      <trkpt lat="42.997962" lon="-2.442075">
        <ele>540.929</ele>
        <time>2018-09-08T12:41:05Z</time>
      </trkpt>
      <trkpt lat="42.997951" lon="-2.442012">
        <ele>540.235</ele>
        <time>2018-09-08T12:41:11Z</time>
      </trkpt>
      <trkpt lat="42.997917" lon="-2.441969">
        <ele>539.222</ele>
        <time>2018-09-08T12:41:18Z</time>
      </trkpt>
      <trkpt lat="42.997896" lon="-2.441905">
        <ele>538.047</ele>
        <time>2018-09-08T12:41:26Z</time>
      </trkpt>
      <trkpt lat="42.997862" lon="-2.441862">
        <ele>536.613</ele>
        <time>2018-09-08T12:41:34Z</time>
      </trkpt>
      <trkpt lat="42.997816" lon="-2.441836">
        <ele>535.353</ele>
        <time>2018-09-08T12:41:42Z</time>
      </trkpt>
      <trkpt lat="42.997768" lon="-2.441833">
        <ele>534.175</ele>
        <time>2018-09-08T12:41:48Z</time>
      </trkpt>
      <trkpt lat="42.997720" lon="-2.441856">
        <ele>533.248</ele>
        <time>2018-09-08T12:41:54Z</time>
      </trkpt>
      <trkpt lat="42.997675" lon="-2.441880">
        <ele>532.461</ele>
        <time>2018-09-08T12:42:00Z</time>
      </trkpt>
      <trkpt lat="42.997631" lon="-2.441894">
        <ele>531.517</ele>
        <time>2018-09-08T12:42:06Z</time>
      </trkpt>
      <trkpt lat="42.997580" lon="-2.441908">
        <ele>530.408</ele>
        <time>2018-09-08T12:42:13Z</time>
      </trkpt>
      <trkpt lat="42.997537" lon="-2.441929">
        <ele>529.726</ele>
        <time>2018-09-08T12:42:18Z</time>
      </trkpt>
      <trkpt lat="42.997490" lon="-2.441965">
        <ele>529.032</ele>
        <time>2018-09-08T12:42:24Z</time>
      </trkpt>
      <trkpt lat="42.997444" lon="-2.441995">
        <ele>528.038</ele>
        <time>2018-09-08T12:42:29Z</time>
      </trkpt>
      <trkpt lat="42.997399" lon="-2.442022">
        <ele>526.955</ele>
        <time>2018-09-08T12:42:37Z</time>
      </trkpt>
      <trkpt lat="42.997358" lon="-2.442065">
        <ele>526.460</ele>
        <time>2018-09-08T12:42:46Z</time>
      </trkpt>
      <trkpt lat="42.997313" lon="-2.442090">
        <ele>525.456</ele>
        <time>2018-09-08T12:42:52Z</time>
      </trkpt>
      <trkpt lat="42.997260" lon="-2.442096">
        <ele>523.966</ele>
        <time>2018-09-08T12:42:58Z</time>
      </trkpt>
      <trkpt lat="42.997209" lon="-2.442115">
        <ele>522.788</ele>
        <time>2018-09-08T12:43:04Z</time>
      </trkpt>
      <trkpt lat="42.997162" lon="-2.442141">
        <ele>521.758</ele>
        <time>2018-09-08T12:43:09Z</time>
      </trkpt>
      <trkpt lat="42.997122" lon="-2.442173">
        <ele>521.252</ele>
        <time>2018-09-08T12:43:14Z</time>
      </trkpt>
      <trkpt lat="42.997081" lon="-2.442220">
        <ele>520.917</ele>
        <time>2018-09-08T12:43:20Z</time>
      </trkpt>
      <trkpt lat="42.997038" lon="-2.442263">
        <ele>519.908</ele>
        <time>2018-09-08T12:43:24Z</time>
      </trkpt>
      <trkpt lat="42.997016" lon="-2.442324">
        <ele>519.797</ele>
        <time>2018-09-08T12:43:29Z</time>
      </trkpt>
      <trkpt lat="42.996994" lon="-2.442384">
        <ele>519.553</ele>
        <time>2018-09-08T12:43:33Z</time>
      </trkpt>
      <trkpt lat="42.996949" lon="-2.442405">
        <ele>518.489</ele>
        <time>2018-09-08T12:43:38Z</time>
      </trkpt>
      <trkpt lat="42.996904" lon="-2.442432">
        <ele>517.486</ele>
        <time>2018-09-08T12:43:45Z</time>
      </trkpt>
      <trkpt lat="42.996872" lon="-2.442483">
        <ele>517.081</ele>
        <time>2018-09-08T12:43:50Z</time>
      </trkpt>
      <trkpt lat="42.996837" lon="-2.442529">
        <ele>516.367</ele>
        <time>2018-09-08T12:43:55Z</time>
      </trkpt>
      <trkpt lat="42.996791" lon="-2.442533">
        <ele>515.157</ele>
        <time>2018-09-08T12:44:03Z</time>
      </trkpt>
      <trkpt lat="42.996754" lon="-2.442570">
        <ele>514.019</ele>
        <time>2018-09-08T12:44:12Z</time>
      </trkpt>
      <trkpt lat="42.996703" lon="-2.442580">
        <ele>512.755</ele>
        <time>2018-09-08T12:44:22Z</time>
      </trkpt>
      <trkpt lat="42.996663" lon="-2.442618">
        <ele>511.507</ele>
        <time>2018-09-08T12:44:29Z</time>
      </trkpt>
      <trkpt lat="42.996623" lon="-2.442665">
        <ele>510.317</ele>
        <time>2018-09-08T12:44:34Z</time>
      </trkpt>
      <trkpt lat="42.996594" lon="-2.442720">
        <ele>509.408</ele>
        <time>2018-09-08T12:44:38Z</time>
      </trkpt>
      <trkpt lat="42.996580" lon="-2.442779">
        <ele>508.847</ele>
        <time>2018-09-08T12:44:43Z</time>
      </trkpt>
      <trkpt lat="42.996568" lon="-2.442838">
        <ele>508.353</ele>
        <time>2018-09-08T12:44:49Z</time>
      </trkpt>
      <trkpt lat="42.996542" lon="-2.442890">
        <ele>507.539</ele>
        <time>2018-09-08T12:44:56Z</time>
      </trkpt>
      <trkpt lat="42.996500" lon="-2.442921">
        <ele>506.326</ele>
        <time>2018-09-08T12:45:03Z</time>
      </trkpt>
      <trkpt lat="42.996459" lon="-2.442954">
        <ele>505.151</ele>
        <time>2018-09-08T12:45:07Z</time>
      </trkpt>
      <trkpt lat="42.996424" lon="-2.442992">
        <ele>504.157</ele>
        <time>2018-09-08T12:45:12Z</time>
      </trkpt>
      <trkpt lat="42.996408" lon="-2.443051">
        <ele>503.557</ele>
        <time>2018-09-08T12:45:20Z</time>
      </trkpt>
      <trkpt lat="42.996368" lon="-2.443082">
        <ele>502.639</ele>
        <time>2018-09-08T12:45:26Z</time>
      </trkpt>
      <trkpt lat="42.996324" lon="-2.443098">
        <ele>501.862</ele>
        <time>2018-09-08T12:45:31Z</time>
      </trkpt>
      <trkpt lat="42.996296" lon="-2.443151">
        <ele>501.383</ele>
        <time>2018-09-08T12:45:37Z</time>
      </trkpt>
      <trkpt lat="42.996273" lon="-2.443210">
        <ele>501.111</ele>
        <time>2018-09-08T12:45:42Z</time>
      </trkpt>
      <trkpt lat="42.996292" lon="-2.443268">
        <ele>501.708</ele>
        <time>2018-09-08T12:45:55Z</time>
      </trkpt>
      <trkpt lat="42.996244" lon="-2.443284">
        <ele>500.718</ele>
        <time>2018-09-08T12:46:02Z</time>
      </trkpt>
      <trkpt lat="42.996192" lon="-2.443283">
        <ele>499.674</ele>
        <time>2018-09-08T12:46:07Z</time>
      </trkpt>
      <trkpt lat="42.996146" lon="-2.443290">
        <ele>498.680</ele>
        <time>2018-09-08T12:46:11Z</time>
      </trkpt>
      <trkpt lat="42.996101" lon="-2.443303">
        <ele>497.617</ele>
        <time>2018-09-08T12:46:15Z</time>
      </trkpt>
      <trkpt lat="42.996055" lon="-2.443331">
        <ele>496.652</ele>
        <time>2018-09-08T12:46:21Z</time>
      </trkpt>
      <trkpt lat="42.996012" lon="-2.443358">
        <ele>495.858</ele>
        <time>2018-09-08T12:46:27Z</time>
      </trkpt>
      <trkpt lat="42.995964" lon="-2.443374">
        <ele>494.878</ele>
        <time>2018-09-08T12:46:32Z</time>
      </trkpt>
      <trkpt lat="42.995918" lon="-2.443397">
        <ele>494.040</ele>
        <time>2018-09-08T12:46:38Z</time>
      </trkpt>
      <trkpt lat="42.995869" lon="-2.443416">
        <ele>493.188</ele>
        <time>2018-09-08T12:46:44Z</time>
      </trkpt>
      <trkpt lat="42.995822" lon="-2.443426">
        <ele>492.124</ele>
        <time>2018-09-08T12:46:49Z</time>
      </trkpt>
      <trkpt lat="42.995776" lon="-2.443433">
        <ele>491.226</ele>
        <time>2018-09-08T12:46:54Z</time>
      </trkpt>
      <trkpt lat="42.995721" lon="-2.443433">
        <ele>490.008</ele>
        <time>2018-09-08T12:47:00Z</time>
      </trkpt>
      <trkpt lat="42.995674" lon="-2.443440">
        <ele>489.170</ele>
        <time>2018-09-08T12:47:04Z</time>
      </trkpt>
      <trkpt lat="42.995631" lon="-2.443462">
        <ele>488.516</ele>
        <time>2018-09-08T12:47:09Z</time>
      </trkpt>
      <trkpt lat="42.995582" lon="-2.443501">
        <ele>488.022</ele>
        <time>2018-09-08T12:47:13Z</time>
      </trkpt>
      <trkpt lat="42.995550" lon="-2.443550">
        <ele>488.039</ele>
        <time>2018-09-08T12:47:17Z</time>
      </trkpt>
      <trkpt lat="42.995508" lon="-2.443596">
        <ele>487.614</ele>
        <time>2018-09-08T12:47:23Z</time>
      </trkpt>
      <trkpt lat="42.995465" lon="-2.443624">
        <ele>486.850</ele>
        <time>2018-09-08T12:47:29Z</time>
      </trkpt>
      <trkpt lat="42.995424" lon="-2.443655">
        <ele>486.140</ele>
        <time>2018-09-08T12:47:35Z</time>
      </trkpt>
      <trkpt lat="42.995381" lon="-2.443682">
        <ele>485.392</ele>
        <time>2018-09-08T12:47:39Z</time>
      </trkpt>
      <trkpt lat="42.995336" lon="-2.443710">
        <ele>484.527</ele>
        <time>2018-09-08T12:47:43Z</time>
      </trkpt>
      <trkpt lat="42.995293" lon="-2.443729">
        <ele>483.668</ele>
        <time>2018-09-08T12:47:48Z</time>
      </trkpt>
      <trkpt lat="42.995250" lon="-2.443760">
        <ele>482.914</ele>
        <time>2018-09-08T12:47:52Z</time>
      </trkpt>
      <trkpt lat="42.995202" lon="-2.443764">
        <ele>481.708</ele>
        <time>2018-09-08T12:47:58Z</time>
      </trkpt>
      <trkpt lat="42.995154" lon="-2.443778">
        <ele>480.724</ele>
        <time>2018-09-08T12:48:04Z</time>
      </trkpt>
      <trkpt lat="42.995105" lon="-2.443795">
        <ele>479.650</ele>
        <time>2018-09-08T12:48:11Z</time>
      </trkpt>
      <trkpt lat="42.995067" lon="-2.443836">
        <ele>479.166</ele>
        <time>2018-09-08T12:48:16Z</time>
      </trkpt>
      <trkpt lat="42.995020" lon="-2.443874">
        <ele>478.323</ele>
        <time>2018-09-08T12:48:31Z</time>
      </trkpt>
      <trkpt lat="42.994973" lon="-2.443916">
        <ele>477.398</ele>
        <time>2018-09-08T12:49:00Z</time>
      </trkpt>
      <trkpt lat="42.994926" lon="-2.443918">
        <ele>476.194</ele>
        <time>2018-09-08T12:49:16Z</time>
      </trkpt>
      <trkpt lat="42.994891" lon="-2.443960">
        <ele>475.244</ele>
        <time>2018-09-08T12:49:27Z</time>
      </trkpt>
      <trkpt lat="42.994844" lon="-2.443918">
        <ele>474.016</ele>
        <time>2018-09-08T12:49:38Z</time>
      </trkpt>
      <trkpt lat="42.994805" lon="-2.443959">
        <ele>472.932</ele>
        <time>2018-09-08T12:49:46Z</time>
      </trkpt>
      <trkpt lat="42.994762" lon="-2.443998">
        <ele>471.792</ele>
        <time>2018-09-08T12:49:52Z</time>
      </trkpt>
      <trkpt lat="42.994720" lon="-2.444045">
        <ele>470.411</ele>
        <time>2018-09-08T12:49:58Z</time>
      </trkpt>
      <trkpt lat="42.994680" lon="-2.444092">
        <ele>469.408</ele>
        <time>2018-09-08T12:50:03Z</time>
      </trkpt>
      <trkpt lat="42.994650" lon="-2.444146">
        <ele>468.775</ele>
        <time>2018-09-08T12:50:07Z</time>
      </trkpt>
      <trkpt lat="42.994630" lon="-2.444210">
        <ele>468.611</ele>
        <time>2018-09-08T12:50:11Z</time>
      </trkpt>
      <trkpt lat="42.994604" lon="-2.444265">
        <ele>468.437</ele>
        <time>2018-09-08T12:50:15Z</time>
      </trkpt>
      <trkpt lat="42.994586" lon="-2.444328">
        <ele>468.494</ele>
        <time>2018-09-08T12:50:20Z</time>
      </trkpt>
      <trkpt lat="42.994554" lon="-2.444387">
        <ele>468.119</ele>
        <time>2018-09-08T12:50:25Z</time>
      </trkpt>
      <trkpt lat="42.994533" lon="-2.444443">
        <ele>467.915</ele>
        <time>2018-09-08T12:50:30Z</time>
      </trkpt>
      <trkpt lat="42.994535" lon="-2.444505">
        <ele>468.115</ele>
        <time>2018-09-08T12:50:35Z</time>
      </trkpt>
      <trkpt lat="42.994525" lon="-2.444576">
        <ele>468.127</ele>
        <time>2018-09-08T12:50:39Z</time>
      </trkpt>
      <trkpt lat="42.994507" lon="-2.444637">
        <ele>467.958</ele>
        <time>2018-09-08T12:50:43Z</time>
      </trkpt>
      <trkpt lat="42.994484" lon="-2.444698">
        <ele>467.652</ele>
        <time>2018-09-08T12:50:48Z</time>
      </trkpt>
      <trkpt lat="42.994455" lon="-2.444749">
        <ele>467.017</ele>
        <time>2018-09-08T12:50:52Z</time>
      </trkpt>
      <trkpt lat="42.994423" lon="-2.444802">
        <ele>466.008</ele>
        <time>2018-09-08T12:50:56Z</time>
      </trkpt>
      <trkpt lat="42.994382" lon="-2.444845">
        <ele>465.027</ele>
        <time>2018-09-08T12:51:00Z</time>
      </trkpt>
      <trkpt lat="42.994344" lon="-2.444895">
        <ele>463.933</ele>
        <time>2018-09-08T12:51:04Z</time>
      </trkpt>
      <trkpt lat="42.994307" lon="-2.444933">
        <ele>463.029</ele>
        <time>2018-09-08T12:51:07Z</time>
      </trkpt>
      <trkpt lat="42.994262" lon="-2.444966">
        <ele>462.036</ele>
        <time>2018-09-08T12:51:11Z</time>
      </trkpt>
      <trkpt lat="42.994223" lon="-2.445009">
        <ele>461.021</ele>
        <time>2018-09-08T12:51:19Z</time>
      </trkpt>
      <trkpt lat="42.994207" lon="-2.445075">
        <ele>460.297</ele>
        <time>2018-09-08T12:51:26Z</time>
      </trkpt>
      <trkpt lat="42.994201" lon="-2.445142">
        <ele>459.787</ele>
        <time>2018-09-08T12:51:32Z</time>
      </trkpt>
      <trkpt lat="42.994193" lon="-2.445210">
        <ele>459.019</ele>
        <time>2018-09-08T12:51:37Z</time>
      </trkpt>
      <trkpt lat="42.994176" lon="-2.445277">
        <ele>458.261</ele>
        <time>2018-09-08T12:51:42Z</time>
      </trkpt>
      <trkpt lat="42.994147" lon="-2.445332">
        <ele>457.321</ele>
        <time>2018-09-08T12:51:48Z</time>
      </trkpt>
      <trkpt lat="42.994112" lon="-2.445375">
        <ele>456.313</ele>
        <time>2018-09-08T12:51:53Z</time>
      </trkpt>
      <trkpt lat="42.994077" lon="-2.445419">
        <ele>455.408</ele>
        <time>2018-09-08T12:51:58Z</time>
      </trkpt>
      <trkpt lat="42.994041" lon="-2.445463">
        <ele>454.428</ele>
        <time>2018-09-08T12:52:03Z</time>
      </trkpt>
      <trkpt lat="42.994006" lon="-2.445508">
        <ele>453.454</ele>
        <time>2018-09-08T12:52:07Z</time>
      </trkpt>
      <trkpt lat="42.993964" lon="-2.445551">
        <ele>452.450</ele>
        <time>2018-09-08T12:52:12Z</time>
      </trkpt>
      <trkpt lat="42.993919" lon="-2.445598">
        <ele>451.117</ele>
        <time>2018-09-08T12:52:17Z</time>
      </trkpt>
      <trkpt lat="42.993879" lon="-2.445632">
        <ele>450.062</ele>
        <time>2018-09-08T12:52:21Z</time>
      </trkpt>
      <trkpt lat="42.993840" lon="-2.445671">
        <ele>448.838</ele>
        <time>2018-09-08T12:52:26Z</time>
      </trkpt>
      <trkpt lat="42.993789" lon="-2.445674">
        <ele>447.728</ele>
        <time>2018-09-08T12:52:33Z</time>
      </trkpt>
      <trkpt lat="42.993744" lon="-2.445680">
        <ele>446.870</ele>
        <time>2018-09-08T12:52:37Z</time>
      </trkpt>
      <trkpt lat="42.993712" lon="-2.445729">
        <ele>445.724</ele>
        <time>2018-09-08T12:52:41Z</time>
      </trkpt>
      <trkpt lat="42.993698" lon="-2.445797">
        <ele>444.904</ele>
        <time>2018-09-08T12:52:50Z</time>
      </trkpt>
      <trkpt lat="42.993676" lon="-2.445860">
        <ele>443.914</ele>
        <time>2018-09-08T12:52:55Z</time>
      </trkpt>
      <trkpt lat="42.993639" lon="-2.445916">
        <ele>442.608</ele>
        <time>2018-09-08T12:53:00Z</time>
      </trkpt>
      <trkpt lat="42.993597" lon="-2.445944">
        <ele>441.634</ele>
        <time>2018-09-08T12:53:05Z</time>
      </trkpt>
      <trkpt lat="42.993554" lon="-2.445978">
        <ele>440.460</ele>
        <time>2018-09-08T12:53:11Z</time>
      </trkpt>
      <trkpt lat="42.993509" lon="-2.446004">
        <ele>439.366</ele>
        <time>2018-09-08T12:53:21Z</time>
      </trkpt>
      <trkpt lat="42.993479" lon="-2.446067">
        <ele>438.153</ele>
        <time>2018-09-08T12:53:25Z</time>
      </trkpt>
      <trkpt lat="42.993463" lon="-2.446126">
        <ele>437.268</ele>
        <time>2018-09-08T12:53:30Z</time>
      </trkpt>
      <trkpt lat="42.993437" lon="-2.446189">
        <ele>436.144</ele>
        <time>2018-09-08T12:53:36Z</time>
      </trkpt>
      <trkpt lat="42.993392" lon="-2.446237">
        <ele>434.854</ele>
        <time>2018-09-08T12:53:41Z</time>
      </trkpt>
      <trkpt lat="42.993353" lon="-2.446293">
        <ele>433.456</ele>
        <time>2018-09-08T12:53:46Z</time>
      </trkpt>
      <trkpt lat="42.993334" lon="-2.446353">
        <ele>432.445</ele>
        <time>2018-09-08T12:53:50Z</time>
      </trkpt>
      <trkpt lat="42.993341" lon="-2.446417">
        <ele>431.947</ele>
        <time>2018-09-08T12:53:57Z</time>
      </trkpt>
      <trkpt lat="42.993337" lon="-2.446479">
        <ele>431.111</ele>
        <time>2018-09-08T12:54:01Z</time>
      </trkpt>
      <trkpt lat="42.993344" lon="-2.446540">
        <ele>430.608</ele>
        <time>2018-09-08T12:54:05Z</time>
      </trkpt>
      <trkpt lat="42.993350" lon="-2.446614">
        <ele>430.026</ele>
        <time>2018-09-08T12:54:10Z</time>
      </trkpt>
      <trkpt lat="42.993343" lon="-2.446677">
        <ele>429.212</ele>
        <time>2018-09-08T12:54:17Z</time>
      </trkpt>
      <trkpt lat="42.993335" lon="-2.446745">
        <ele>429.048</ele>
        <time>2018-09-08T12:54:31Z</time>
      </trkpt>
      <trkpt lat="42.993318" lon="-2.446805">
        <ele>428.665</ele>
        <time>2018-09-08T12:54:36Z</time>
      </trkpt>
      <trkpt lat="42.993295" lon="-2.446866">
        <ele>427.920</ele>
        <time>2018-09-08T12:54:41Z</time>
      </trkpt>
      <trkpt lat="42.993263" lon="-2.446913">
        <ele>427.076</ele>
        <time>2018-09-08T12:54:45Z</time>
      </trkpt>
      <trkpt lat="42.993233" lon="-2.446960">
        <ele>426.186</ele>
        <time>2018-09-08T12:54:49Z</time>
      </trkpt>
      <trkpt lat="42.993231" lon="-2.447028">
        <ele>425.828</ele>
        <time>2018-09-08T12:54:54Z</time>
      </trkpt>
      <trkpt lat="42.993229" lon="-2.447105">
        <ele>425.497</ele>
        <time>2018-09-08T12:54:58Z</time>
      </trkpt>
      <trkpt lat="42.993229" lon="-2.447175">
        <ele>425.223</ele>
        <time>2018-09-08T12:55:02Z</time>
      </trkpt>
      <trkpt lat="42.993216" lon="-2.447250">
        <ele>424.425</ele>
        <time>2018-09-08T12:55:07Z</time>
      </trkpt>
      <trkpt lat="42.993204" lon="-2.447318">
        <ele>423.408</ele>
        <time>2018-09-08T12:55:11Z</time>
      </trkpt>
      <trkpt lat="42.993186" lon="-2.447391">
        <ele>422.251</ele>
        <time>2018-09-08T12:55:15Z</time>
      </trkpt>
      <trkpt lat="42.993167" lon="-2.447461">
        <ele>421.097</ele>
        <time>2018-09-08T12:55:20Z</time>
      </trkpt>
      <trkpt lat="42.993152" lon="-2.447525">
        <ele>419.783</ele>
        <time>2018-09-08T12:55:24Z</time>
      </trkpt>
      <trkpt lat="42.993135" lon="-2.447590">
        <ele>418.210</ele>
        <time>2018-09-08T12:55:28Z</time>
      </trkpt>
      <trkpt lat="42.993131" lon="-2.447660">
        <ele>417.085</ele>
        <time>2018-09-08T12:55:33Z</time>
      </trkpt>
      <trkpt lat="42.993135" lon="-2.447722">
        <ele>416.131</ele>
        <time>2018-09-08T12:55:37Z</time>
      </trkpt>
      <trkpt lat="42.993140" lon="-2.447790">
        <ele>415.081</ele>
        <time>2018-09-08T12:55:41Z</time>
      </trkpt>
      <trkpt lat="42.993155" lon="-2.447856">
        <ele>413.323</ele>
        <time>2018-09-08T12:55:47Z</time>
      </trkpt>
      <trkpt lat="42.993152" lon="-2.447918">
        <ele>411.291</ele>
        <time>2018-09-08T12:55:52Z</time>
      </trkpt>
      <trkpt lat="42.993123" lon="-2.447975">
        <ele>408.781</ele>
        <time>2018-09-08T12:55:58Z</time>
      </trkpt>
      <trkpt lat="42.993071" lon="-2.447970">
        <ele>407.819</ele>
        <time>2018-09-08T12:56:03Z</time>
      </trkpt>
      <trkpt lat="42.993028" lon="-2.447952">
        <ele>407.108</ele>
        <time>2018-09-08T12:56:07Z</time>
      </trkpt>
      <trkpt lat="42.992980" lon="-2.447943">
        <ele>405.881</ele>
        <time>2018-09-08T12:56:12Z</time>
      </trkpt>
      <trkpt lat="42.992937" lon="-2.447966">
        <ele>404.137</ele>
        <time>2018-09-08T12:56:20Z</time>
      </trkpt>
      <trkpt lat="42.992910" lon="-2.448022">
        <ele>402.473</ele>
        <time>2018-09-08T12:56:24Z</time>
      </trkpt>
      <trkpt lat="42.992903" lon="-2.448087">
        <ele>401.020</ele>
        <time>2018-09-08T12:56:30Z</time>
      </trkpt>
      <trkpt lat="42.992895" lon="-2.448151">
        <ele>399.535</ele>
        <time>2018-09-08T12:56:35Z</time>
      </trkpt>
      <trkpt lat="42.992870" lon="-2.448208">
        <ele>398.351</ele>
        <time>2018-09-08T12:56:39Z</time>
      </trkpt>
      <trkpt lat="42.992843" lon="-2.448273">
        <ele>397.251</ele>
        <time>2018-09-08T12:56:43Z</time>
      </trkpt>
      <trkpt lat="42.992840" lon="-2.448335">
        <ele>396.383</ele>
        <time>2018-09-08T12:56:47Z</time>
      </trkpt>
      <trkpt lat="42.992831" lon="-2.448406">
        <ele>395.631</ele>
        <time>2018-09-08T12:56:52Z</time>
      </trkpt>
      <trkpt lat="42.992814" lon="-2.448468">
        <ele>395.061</ele>
        <time>2018-09-08T12:56:56Z</time>
      </trkpt>
      <trkpt lat="42.992811" lon="-2.448530">
        <ele>394.207</ele>
        <time>2018-09-08T12:57:01Z</time>
      </trkpt>
      <trkpt lat="42.992817" lon="-2.448602">
        <ele>393.408</ele>
        <time>2018-09-08T12:57:06Z</time>
      </trkpt>
      <trkpt lat="42.992806" lon="-2.448667">
        <ele>393.265</ele>
        <time>2018-09-08T12:57:11Z</time>
      </trkpt>
      <trkpt lat="42.992797" lon="-2.448728">
        <ele>393.221</ele>
        <time>2018-09-08T12:57:18Z</time>
      </trkpt>
      <trkpt lat="42.992809" lon="-2.448788">
        <ele>393.437</ele>
        <time>2018-09-08T12:57:23Z</time>
      </trkpt>
      <trkpt lat="42.992829" lon="-2.448858">
        <ele>393.754</ele>
        <time>2018-09-08T12:57:28Z</time>
      </trkpt>
      <trkpt lat="42.992873" lon="-2.448898">
        <ele>394.459</ele>
        <time>2018-09-08T12:57:32Z</time>
      </trkpt>
      <trkpt lat="42.992919" lon="-2.448886">
        <ele>395.045</ele>
        <time>2018-09-08T12:57:38Z</time>
      </trkpt>
      <trkpt lat="42.992899" lon="-2.448942">
        <ele>394.825</ele>
        <time>2018-09-08T12:58:54Z</time>
      </trkpt>
      <trkpt lat="42.992817" lon="-2.448869">
        <ele>393.537</ele>
        <time>2018-09-08T12:58:59Z</time>
      </trkpt>
      <trkpt lat="42.992800" lon="-2.448747">
        <ele>393.247</ele>
        <time>2018-09-08T12:59:01Z</time>
      </trkpt>
      <trkpt lat="42.992816" lon="-2.448656">
        <ele>393.329</ele>
        <time>2018-09-08T12:59:02Z</time>
      </trkpt>
      <trkpt lat="42.992810" lon="-2.448575">
        <ele>393.721</ele>
        <time>2018-09-08T12:59:03Z</time>
      </trkpt>
      <trkpt lat="42.992800" lon="-2.448500">
        <ele>394.608</ele>
        <time>2018-09-08T12:59:04Z</time>
      </trkpt>
      <trkpt lat="42.992794" lon="-2.448415">
        <ele>395.726</ele>
        <time>2018-09-08T12:59:05Z</time>
      </trkpt>
      <trkpt lat="42.992781" lon="-2.448325">
        <ele>397.052</ele>
        <time>2018-09-08T12:59:06Z</time>
      </trkpt>
      <trkpt lat="42.992769" lon="-2.448230">
        <ele>397.528</ele>
        <time>2018-09-08T12:59:07Z</time>
      </trkpt>
      <trkpt lat="42.992763" lon="-2.448136">
        <ele>397.935</ele>
        <time>2018-09-08T12:59:08Z</time>
      </trkpt>
      <trkpt lat="42.992752" lon="-2.448047">
        <ele>398.120</ele>
        <time>2018-09-08T12:59:09Z</time>
      </trkpt>
      <trkpt lat="42.992741" lon="-2.447953">
        <ele>398.016</ele>
        <time>2018-09-08T12:59:10Z</time>
      </trkpt>
      <trkpt lat="42.992730" lon="-2.447861">
        <ele>397.986</ele>
        <time>2018-09-08T12:59:11Z</time>
      </trkpt>
      <trkpt lat="42.992699" lon="-2.447752">
        <ele>397.258</ele>
        <time>2018-09-08T12:59:12Z</time>
      </trkpt>
      <trkpt lat="42.992651" lon="-2.447641">
        <ele>396.519</ele>
        <time>2018-09-08T12:59:13Z</time>
      </trkpt>
      <trkpt lat="42.992626" lon="-2.447543">
        <ele>396.409</ele>
        <time>2018-09-08T12:59:14Z</time>
      </trkpt>
      <trkpt lat="42.992561" lon="-2.447459">
        <ele>394.519</ele>
        <time>2018-09-08T12:59:15Z</time>
      </trkpt>
      <trkpt lat="42.992516" lon="-2.447387">
        <ele>393.708</ele>
        <time>2018-09-08T12:59:16Z</time>
      </trkpt>
      <trkpt lat="42.992463" lon="-2.447312">
        <ele>393.683</ele>
        <time>2018-09-08T12:59:17Z</time>
      </trkpt>
      <trkpt lat="42.992432" lon="-2.447237">
        <ele>394.119</ele>
        <time>2018-09-08T12:59:18Z</time>
      </trkpt>
      <trkpt lat="42.992380" lon="-2.447159">
        <ele>393.865</ele>
        <time>2018-09-08T12:59:19Z</time>
      </trkpt>
      <trkpt lat="42.992333" lon="-2.447081">
        <ele>393.572</ele>
        <time>2018-09-08T12:59:20Z</time>
      </trkpt>
      <trkpt lat="42.992280" lon="-2.447011">
        <ele>392.937</ele>
        <time>2018-09-08T12:59:21Z</time>
      </trkpt>
      <trkpt lat="42.992233" lon="-2.446943">
        <ele>392.383</ele>
        <time>2018-09-08T12:59:22Z</time>
      </trkpt>
      <trkpt lat="42.992180" lon="-2.446874">
        <ele>392.013</ele>
        <time>2018-09-08T12:59:23Z</time>
      </trkpt>
      <trkpt lat="42.992142" lon="-2.446820">
        <ele>391.915</ele>
        <time>2018-09-08T12:59:24Z</time>
      </trkpt>
      <trkpt lat="42.992093" lon="-2.446759">
        <ele>391.756</ele>
        <time>2018-09-08T12:59:25Z</time>
      </trkpt>
      <trkpt lat="42.992055" lon="-2.446710">
        <ele>391.559</ele>
        <time>2018-09-08T12:59:26Z</time>
      </trkpt>
      <trkpt lat="42.992018" lon="-2.446654">
        <ele>391.414</ele>
        <time>2018-09-08T12:59:27Z</time>
      </trkpt>
      <trkpt lat="42.991990" lon="-2.446588">
        <ele>391.508</ele>
        <time>2018-09-08T12:59:28Z</time>
      </trkpt>
      <trkpt lat="42.991941" lon="-2.446519">
        <ele>391.037</ele>
        <time>2018-09-08T12:59:29Z</time>
      </trkpt>
      <trkpt lat="42.991912" lon="-2.446459">
        <ele>390.773</ele>
        <time>2018-09-08T12:59:30Z</time>
      </trkpt>
      <trkpt lat="42.991886" lon="-2.446391">
        <ele>390.569</ele>
        <time>2018-09-08T12:59:31Z</time>
      </trkpt>
      <trkpt lat="42.991884" lon="-2.446313">
        <ele>390.486</ele>
        <time>2018-09-08T12:59:32Z</time>
      </trkpt>
      <trkpt lat="42.991913" lon="-2.446248">
        <ele>391.141</ele>
        <time>2018-09-08T12:59:33Z</time>
      </trkpt>
      <trkpt lat="42.991918" lon="-2.446182">
        <ele>391.387</ele>
        <time>2018-09-08T12:59:34Z</time>
      </trkpt>
      <trkpt lat="42.991958" lon="-2.446119">
        <ele>392.597</ele>
        <time>2018-09-08T12:59:36Z</time>
      </trkpt>
      <trkpt lat="42.991971" lon="-2.446044">
        <ele>392.479</ele>
        <time>2018-09-08T12:59:39Z</time>
      </trkpt>
    </trkseg>
  </trk>
</gpx>
